<?xml version="1.0" encoding="UTF-8" standalone="no" ?>
<gpx xmlns="http://www.topografix.com/GPX/1/1" xmlns:xsi="http://www.w3.org/2001/XMLSchema-instance" xsi:schemaLocation="http://www.topografix.com/GPX/1/1 http://www.topografix.com/GPX/1/1/gpx.xsd" version="1.1" creator="VisuGPX - https://www.visugpx.com">
  <metadata>
    <name>Monestier à Grenoble</name>
    <desc><![CDATA[Trièves à vélo]]></desc>
  </metadata>
  <trk>
    <name><![CDATA[20130417105703]]></name>
    <trkseg>
      <trkpt lat="44.91215" lon="5.6339">
        <ele>851.12</ele>
        <time>2013-04-17T08:57:03Z</time>
      </trkpt>
      <trkpt lat="44.91238" lon="5.63352">
        <ele>850.98</ele>
        <time>2013-04-17T08:57:51Z</time>
      </trkpt>
      <trkpt lat="44.91241" lon="5.63348">
        <ele>850.93</ele>
        <time>2013-04-17T08:57:52Z</time>
      </trkpt>
      <trkpt lat="44.91294" lon="5.63281">
        <ele>850.83</ele>
        <time>2013-04-17T08:58:07Z</time>
      </trkpt>
      <trkpt lat="44.91272" lon="5.63239">
        <ele>853.05</ele>
        <time>2013-04-17T08:58:22Z</time>
      </trkpt>
      <trkpt lat="44.9122" lon="5.6321">
        <ele>852.27</ele>
        <time>2013-04-17T08:58:37Z</time>
      </trkpt>
      <trkpt lat="44.91171" lon="5.63182">
        <ele>850.68</ele>
        <time>2013-04-17T08:58:52Z</time>
      </trkpt>
      <trkpt lat="44.91121" lon="5.63157">
        <ele>852.78</ele>
        <time>2013-04-17T08:59:07Z</time>
      </trkpt>
      <trkpt lat="44.91077" lon="5.63132">
        <ele>857.41</ele>
        <time>2013-04-17T08:59:22Z</time>
      </trkpt>
      <trkpt lat="44.91034" lon="5.63109">
        <ele>861.81</ele>
        <time>2013-04-17T08:59:37Z</time>
      </trkpt>
      <trkpt lat="44.90992" lon="5.63085">
        <ele>865.81</ele>
        <time>2013-04-17T08:59:52Z</time>
      </trkpt>
      <trkpt lat="44.90956" lon="5.63065">
        <ele>867.33</ele>
        <time>2013-04-17T09:00:07Z</time>
      </trkpt>
      <trkpt lat="44.90918" lon="5.63042">
        <ele>873.33</ele>
        <time>2013-04-17T09:00:22Z</time>
      </trkpt>
      <trkpt lat="44.90883" lon="5.63015">
        <ele>876.62</ele>
        <time>2013-04-17T09:00:37Z</time>
      </trkpt>
      <trkpt lat="44.90849" lon="5.62981">
        <ele>880.74</ele>
        <time>2013-04-17T09:00:52Z</time>
      </trkpt>
      <trkpt lat="44.9082" lon="5.62937">
        <ele>884.29</ele>
        <time>2013-04-17T09:01:07Z</time>
      </trkpt>
      <trkpt lat="44.90798" lon="5.62888">
        <ele>886.88</ele>
        <time>2013-04-17T09:01:22Z</time>
      </trkpt>
      <trkpt lat="44.90779" lon="5.62841">
        <ele>889.18</ele>
        <time>2013-04-17T09:01:36Z</time>
      </trkpt>
      <trkpt lat="44.90778" lon="5.62837">
        <ele>889.42</ele>
        <time>2013-04-17T09:01:37Z</time>
      </trkpt>
      <trkpt lat="44.90762" lon="5.62791">
        <ele>892.97</ele>
        <time>2013-04-17T09:01:51Z</time>
      </trkpt>
      <trkpt lat="44.90729" lon="5.62747">
        <ele>896.35</ele>
        <time>2013-04-17T09:02:07Z</time>
      </trkpt>
      <trkpt lat="44.90703" lon="5.62697">
        <ele>900.55</ele>
        <time>2013-04-17T09:02:22Z</time>
      </trkpt>
      <trkpt lat="44.90677" lon="5.62666">
        <ele>902.76</ele>
        <time>2013-04-17T09:02:36Z</time>
      </trkpt>
      <trkpt lat="44.90675" lon="5.62664">
        <ele>902.81</ele>
        <time>2013-04-17T09:02:37Z</time>
      </trkpt>
      <trkpt lat="44.90638" lon="5.62639">
        <ele>903.24</ele>
        <time>2013-04-17T09:02:51Z</time>
      </trkpt>
      <trkpt lat="44.90602" lon="5.6262">
        <ele>902.53</ele>
        <time>2013-04-17T09:03:07Z</time>
      </trkpt>
      <trkpt lat="44.90565" lon="5.62608">
        <ele>901.78</ele>
        <time>2013-04-17T09:03:22Z</time>
      </trkpt>
      <trkpt lat="44.90502" lon="5.62656">
        <ele>898.06</ele>
        <time>2013-04-17T09:03:36Z</time>
      </trkpt>
      <trkpt lat="44.90496" lon="5.62662">
        <ele>897.67</ele>
        <time>2013-04-17T09:03:37Z</time>
      </trkpt>
      <trkpt lat="44.90403" lon="5.62757">
        <ele>892.16</ele>
        <time>2013-04-17T09:03:51Z</time>
      </trkpt>
      <trkpt lat="44.90287" lon="5.62876">
        <ele>885.93</ele>
        <time>2013-04-17T09:04:07Z</time>
      </trkpt>
      <trkpt lat="44.90159" lon="5.62833">
        <ele>876.81</ele>
        <time>2013-04-17T09:04:22Z</time>
      </trkpt>
      <trkpt lat="44.90039" lon="5.628">
        <ele>870.05</ele>
        <time>2013-04-17T09:04:36Z</time>
      </trkpt>
      <trkpt lat="44.90029" lon="5.62796">
        <ele>869.63</ele>
        <time>2013-04-17T09:04:37Z</time>
      </trkpt>
      <trkpt lat="44.89898" lon="5.62795">
        <ele>863.56</ele>
        <time>2013-04-17T09:04:51Z</time>
      </trkpt>
      <trkpt lat="44.89789" lon="5.62917">
        <ele>855.99</ele>
        <time>2013-04-17T09:05:06Z</time>
      </trkpt>
      <trkpt lat="44.89798" lon="5.63046">
        <ele>847.05</ele>
        <time>2013-04-17T09:05:21Z</time>
      </trkpt>
      <trkpt lat="44.8975" lon="5.63165">
        <ele>839.83</ele>
        <time>2013-04-17T09:05:36Z</time>
      </trkpt>
      <trkpt lat="44.89729" lon="5.63365">
        <ele>831.51</ele>
        <time>2013-04-17T09:05:51Z</time>
      </trkpt>
      <trkpt lat="44.8961" lon="5.635">
        <ele>823.68</ele>
        <time>2013-04-17T09:06:06Z</time>
      </trkpt>
      <trkpt lat="44.89453" lon="5.63543">
        <ele>815.45</ele>
        <time>2013-04-17T09:06:21Z</time>
      </trkpt>
      <trkpt lat="44.89304" lon="5.63519">
        <ele>808.24</ele>
        <time>2013-04-17T09:06:36Z</time>
      </trkpt>
      <trkpt lat="44.89184" lon="5.63446">
        <ele>801.31</ele>
        <time>2013-04-17T09:06:51Z</time>
      </trkpt>
      <trkpt lat="44.89056" lon="5.63561">
        <ele>792.26</ele>
        <time>2013-04-17T09:07:06Z</time>
      </trkpt>
      <trkpt lat="44.88929" lon="5.63692">
        <ele>784.38</ele>
        <time>2013-04-17T09:07:21Z</time>
      </trkpt>
      <trkpt lat="44.88796" lon="5.63807">
        <ele>776.16</ele>
        <time>2013-04-17T09:07:36Z</time>
      </trkpt>
      <trkpt lat="44.88658" lon="5.63865">
        <ele>769.24</ele>
        <time>2013-04-17T09:07:51Z</time>
      </trkpt>
      <trkpt lat="44.886" lon="5.64025">
        <ele>760.93</ele>
        <time>2013-04-17T09:08:06Z</time>
      </trkpt>
      <trkpt lat="44.88549" lon="5.64199">
        <ele>757.99</ele>
        <time>2013-04-17T09:08:21Z</time>
      </trkpt>
      <trkpt lat="44.8847" lon="5.64338">
        <ele>756.16</ele>
        <time>2013-04-17T09:08:36Z</time>
      </trkpt>
      <trkpt lat="44.88457" lon="5.64514">
        <ele>753.7</ele>
        <time>2013-04-17T09:08:51Z</time>
      </trkpt>
      <trkpt lat="44.8836" lon="5.64616">
        <ele>751.46</ele>
        <time>2013-04-17T09:09:06Z</time>
      </trkpt>
      <trkpt lat="44.88266" lon="5.6472">
        <ele>749.49</ele>
        <time>2013-04-17T09:09:21Z</time>
      </trkpt>
      <trkpt lat="44.88178" lon="5.64836">
        <ele>747.07</ele>
        <time>2013-04-17T09:09:36Z</time>
      </trkpt>
      <trkpt lat="44.88063" lon="5.64874">
        <ele>744.56</ele>
        <time>2013-04-17T09:09:51Z</time>
      </trkpt>
      <trkpt lat="44.87945" lon="5.64893">
        <ele>741.59</ele>
        <time>2013-04-17T09:10:06Z</time>
      </trkpt>
      <trkpt lat="44.87846" lon="5.6494">
        <ele>738.81</ele>
        <time>2013-04-17T09:10:21Z</time>
      </trkpt>
      <trkpt lat="44.87763" lon="5.65057">
        <ele>735.42</ele>
        <time>2013-04-17T09:10:36Z</time>
      </trkpt>
      <trkpt lat="44.87642" lon="5.65067">
        <ele>733.28</ele>
        <time>2013-04-17T09:10:51Z</time>
      </trkpt>
      <trkpt lat="44.87524" lon="5.65005">
        <ele>730.94</ele>
        <time>2013-04-17T09:11:06Z</time>
      </trkpt>
      <trkpt lat="44.87407" lon="5.6498">
        <ele>728.85</ele>
        <time>2013-04-17T09:11:21Z</time>
      </trkpt>
      <trkpt lat="44.87321" lon="5.65108">
        <ele>725.03</ele>
        <time>2013-04-17T09:11:36Z</time>
      </trkpt>
      <trkpt lat="44.87249" lon="5.65258">
        <ele>720.57</ele>
        <time>2013-04-17T09:11:51Z</time>
      </trkpt>
      <trkpt lat="44.87311" lon="5.65429">
        <ele>713.61</ele>
        <time>2013-04-17T09:12:06Z</time>
      </trkpt>
      <trkpt lat="44.87348" lon="5.65543">
        <ele>704.91</ele>
        <time>2013-04-17T09:12:21Z</time>
      </trkpt>
      <trkpt lat="44.87207" lon="5.65565">
        <ele>692.5</ele>
        <time>2013-04-17T09:12:36Z</time>
      </trkpt>
      <trkpt lat="44.87092" lon="5.65681">
        <ele>681.18</ele>
        <time>2013-04-17T09:12:51Z</time>
      </trkpt>
      <trkpt lat="44.87003" lon="5.65813">
        <ele>670.04</ele>
        <time>2013-04-17T09:13:06Z</time>
      </trkpt>
      <trkpt lat="44.86878" lon="5.65971">
        <ele>656.45</ele>
        <time>2013-04-17T09:13:21Z</time>
      </trkpt>
      <trkpt lat="44.86952" lon="5.66078">
        <ele>643.33</ele>
        <time>2013-04-17T09:13:36Z</time>
      </trkpt>
      <trkpt lat="44.86974" lon="5.66197">
        <ele>632.38</ele>
        <time>2013-04-17T09:13:51Z</time>
      </trkpt>
      <trkpt lat="44.8689" lon="5.66379">
        <ele>620.31</ele>
        <time>2013-04-17T09:14:06Z</time>
      </trkpt>
      <trkpt lat="44.86947" lon="5.66561">
        <ele>609.07</ele>
        <time>2013-04-17T09:14:21Z</time>
      </trkpt>
      <trkpt lat="44.87035" lon="5.66674">
        <ele>598.18</ele>
        <time>2013-04-17T09:14:36Z</time>
      </trkpt>
      <trkpt lat="44.87089" lon="5.66808">
        <ele>588.46</ele>
        <time>2013-04-17T09:14:51Z</time>
      </trkpt>
      <trkpt lat="44.86957" lon="5.66824">
        <ele>577.95</ele>
        <time>2013-04-17T09:15:06Z</time>
      </trkpt>
      <trkpt lat="44.8693" lon="5.67022">
        <ele>564.76</ele>
        <time>2013-04-17T09:15:21Z</time>
      </trkpt>
      <trkpt lat="44.86904" lon="5.6691">
        <ele>559.51</ele>
        <time>2013-04-17T09:15:36Z</time>
      </trkpt>
      <trkpt lat="44.86863" lon="5.66866">
        <ele>553.41</ele>
        <time>2013-04-17T09:15:51Z</time>
      </trkpt>
      <trkpt lat="44.86822" lon="5.67057">
        <ele>543.78</ele>
        <time>2013-04-17T09:16:06Z</time>
      </trkpt>
      <trkpt lat="44.86759" lon="5.67197">
        <ele>544.17</ele>
        <time>2013-04-17T09:16:21Z</time>
      </trkpt>
      <trkpt lat="44.86728" lon="5.67266">
        <ele>550.34</ele>
        <time>2013-04-17T09:16:36Z</time>
      </trkpt>
      <trkpt lat="44.8672" lon="5.67324">
        <ele>554.21</ele>
        <time>2013-04-17T09:16:51Z</time>
      </trkpt>
      <trkpt lat="44.86718" lon="5.67378">
        <ele>556.96</ele>
        <time>2013-04-17T09:17:06Z</time>
      </trkpt>
      <trkpt lat="44.86716" lon="5.67433">
        <ele>560.03</ele>
        <time>2013-04-17T09:17:21Z</time>
      </trkpt>
      <trkpt lat="44.86713" lon="5.67486">
        <ele>563.74</ele>
        <time>2013-04-17T09:17:36Z</time>
      </trkpt>
      <trkpt lat="44.86718" lon="5.67537">
        <ele>566.76</ele>
        <time>2013-04-17T09:17:51Z</time>
      </trkpt>
      <trkpt lat="44.86725" lon="5.67591">
        <ele>569.46</ele>
        <time>2013-04-17T09:18:06Z</time>
      </trkpt>
      <trkpt lat="44.86723" lon="5.67649">
        <ele>572.01</ele>
        <time>2013-04-17T09:18:21Z</time>
      </trkpt>
      <trkpt lat="44.86707" lon="5.67626">
        <ele>575.2</ele>
        <time>2013-04-17T09:18:36Z</time>
      </trkpt>
      <trkpt lat="44.86696" lon="5.6756">
        <ele>575.96</ele>
        <time>2013-04-17T09:18:51Z</time>
      </trkpt>
      <trkpt lat="44.86676" lon="5.67509">
        <ele>578.22</ele>
        <time>2013-04-17T09:19:06Z</time>
      </trkpt>
      <trkpt lat="44.86658" lon="5.6746">
        <ele>580.75</ele>
        <time>2013-04-17T09:19:21Z</time>
      </trkpt>
      <trkpt lat="44.86639" lon="5.67409">
        <ele>586.08</ele>
        <time>2013-04-17T09:19:36Z</time>
      </trkpt>
      <trkpt lat="44.86619" lon="5.6736">
        <ele>590.13</ele>
        <time>2013-04-17T09:19:51Z</time>
      </trkpt>
      <trkpt lat="44.86598" lon="5.67386">
        <ele>592.47</ele>
        <time>2013-04-17T09:20:06Z</time>
      </trkpt>
      <trkpt lat="44.86602" lon="5.67441">
        <ele>595.05</ele>
        <time>2013-04-17T09:20:21Z</time>
      </trkpt>
      <trkpt lat="44.86589" lon="5.67493">
        <ele>597.74</ele>
        <time>2013-04-17T09:20:36Z</time>
      </trkpt>
      <trkpt lat="44.86568" lon="5.67543">
        <ele>600.91</ele>
        <time>2013-04-17T09:20:51Z</time>
      </trkpt>
      <trkpt lat="44.86546" lon="5.67596">
        <ele>604.32</ele>
        <time>2013-04-17T09:21:06Z</time>
      </trkpt>
      <trkpt lat="44.86526" lon="5.67649">
        <ele>607.63</ele>
        <time>2013-04-17T09:21:21Z</time>
      </trkpt>
      <trkpt lat="44.86513" lon="5.67703">
        <ele>610.67</ele>
        <time>2013-04-17T09:21:36Z</time>
      </trkpt>
      <trkpt lat="44.86486" lon="5.67709">
        <ele>614.43</ele>
        <time>2013-04-17T09:21:51Z</time>
      </trkpt>
      <trkpt lat="44.86473" lon="5.67652">
        <ele>617.67</ele>
        <time>2013-04-17T09:22:06Z</time>
      </trkpt>
      <trkpt lat="44.86462" lon="5.67597">
        <ele>622.89</ele>
        <time>2013-04-17T09:22:21Z</time>
      </trkpt>
      <trkpt lat="44.86453" lon="5.6754">
        <ele>627.4</ele>
        <time>2013-04-17T09:22:36Z</time>
      </trkpt>
      <trkpt lat="44.8643" lon="5.6757">
        <ele>629.31</ele>
        <time>2013-04-17T09:22:51Z</time>
      </trkpt>
      <trkpt lat="44.86415" lon="5.67625">
        <ele>631.49</ele>
        <time>2013-04-17T09:23:06Z</time>
      </trkpt>
      <trkpt lat="44.86395" lon="5.67674">
        <ele>633.94</ele>
        <time>2013-04-17T09:23:21Z</time>
      </trkpt>
      <trkpt lat="44.86374" lon="5.6772">
        <ele>636.57</ele>
        <time>2013-04-17T09:23:36Z</time>
      </trkpt>
      <trkpt lat="44.86354" lon="5.67768">
        <ele>639.61</ele>
        <time>2013-04-17T09:23:51Z</time>
      </trkpt>
      <trkpt lat="44.86332" lon="5.67815">
        <ele>642.73</ele>
        <time>2013-04-17T09:24:06Z</time>
      </trkpt>
      <trkpt lat="44.86311" lon="5.67867">
        <ele>645.29</ele>
        <time>2013-04-17T09:24:21Z</time>
      </trkpt>
      <trkpt lat="44.86291" lon="5.67918">
        <ele>649.11</ele>
        <time>2013-04-17T09:24:36Z</time>
      </trkpt>
      <trkpt lat="44.86264" lon="5.67973">
        <ele>650.52</ele>
        <time>2013-04-17T09:24:51Z</time>
      </trkpt>
      <trkpt lat="44.86231" lon="5.68032">
        <ele>654.07</ele>
        <time>2013-04-17T09:25:06Z</time>
      </trkpt>
      <trkpt lat="44.862" lon="5.68084">
        <ele>657.4</ele>
        <time>2013-04-17T09:25:21Z</time>
      </trkpt>
      <trkpt lat="44.86167" lon="5.68123">
        <ele>660.97</ele>
        <time>2013-04-17T09:25:36Z</time>
      </trkpt>
      <trkpt lat="44.8613" lon="5.68144">
        <ele>665.33</ele>
        <time>2013-04-17T09:25:51Z</time>
      </trkpt>
      <trkpt lat="44.86091" lon="5.68158">
        <ele>669.61</ele>
        <time>2013-04-17T09:26:06Z</time>
      </trkpt>
      <trkpt lat="44.86053" lon="5.68173">
        <ele>673.82</ele>
        <time>2013-04-17T09:26:21Z</time>
      </trkpt>
      <trkpt lat="44.86023" lon="5.68212">
        <ele>676.86</ele>
        <time>2013-04-17T09:26:36Z</time>
      </trkpt>
      <trkpt lat="44.86016" lon="5.68269">
        <ele>680.73</ele>
        <time>2013-04-17T09:26:51Z</time>
      </trkpt>
      <trkpt lat="44.86004" lon="5.68322">
        <ele>684.33</ele>
        <time>2013-04-17T09:27:06Z</time>
      </trkpt>
      <trkpt lat="44.85968" lon="5.68341">
        <ele>688.65</ele>
        <time>2013-04-17T09:27:21Z</time>
      </trkpt>
      <trkpt lat="44.85927" lon="5.68339">
        <ele>692.89</ele>
        <time>2013-04-17T09:27:36Z</time>
      </trkpt>
      <trkpt lat="44.8588" lon="5.68335">
        <ele>694.75</ele>
        <time>2013-04-17T09:27:51Z</time>
      </trkpt>
      <trkpt lat="44.85835" lon="5.68334">
        <ele>697.23</ele>
        <time>2013-04-17T09:28:06Z</time>
      </trkpt>
      <trkpt lat="44.858" lon="5.68359">
        <ele>701.05</ele>
        <time>2013-04-17T09:28:21Z</time>
      </trkpt>
      <trkpt lat="44.85788" lon="5.68385">
        <ele>703.05</ele>
        <time>2013-04-17T09:29:16Z</time>
      </trkpt>
      <trkpt lat="44.85783" lon="5.68399">
        <ele>703.26</ele>
        <time>2013-04-17T09:29:21Z</time>
      </trkpt>
      <trkpt lat="44.8576" lon="5.68437">
        <ele>704.59</ele>
        <time>2013-04-17T09:29:36Z</time>
      </trkpt>
      <trkpt lat="44.85734" lon="5.68471">
        <ele>708</ele>
        <time>2013-04-17T09:29:51Z</time>
      </trkpt>
      <trkpt lat="44.85705" lon="5.68506">
        <ele>709.71</ele>
        <time>2013-04-17T09:30:06Z</time>
      </trkpt>
      <trkpt lat="44.85672" lon="5.68543">
        <ele>710.77</ele>
        <time>2013-04-17T09:30:21Z</time>
      </trkpt>
      <trkpt lat="44.85638" lon="5.68583">
        <ele>714.66</ele>
        <time>2013-04-17T09:30:36Z</time>
      </trkpt>
      <trkpt lat="44.85608" lon="5.68627">
        <ele>721.17</ele>
        <time>2013-04-17T09:30:51Z</time>
      </trkpt>
      <trkpt lat="44.85575" lon="5.68668">
        <ele>726.54</ele>
        <time>2013-04-17T09:31:06Z</time>
      </trkpt>
      <trkpt lat="44.85539" lon="5.68707">
        <ele>733.51</ele>
        <time>2013-04-17T09:31:21Z</time>
      </trkpt>
      <trkpt lat="44.85503" lon="5.68745">
        <ele>743.45</ele>
        <time>2013-04-17T09:31:36Z</time>
      </trkpt>
      <trkpt lat="44.85467" lon="5.68783">
        <ele>745.41</ele>
        <time>2013-04-17T09:31:51Z</time>
      </trkpt>
      <trkpt lat="44.85431" lon="5.68817">
        <ele>744.64</ele>
        <time>2013-04-17T09:32:06Z</time>
      </trkpt>
      <trkpt lat="44.85398" lon="5.68851">
        <ele>744.21</ele>
        <time>2013-04-17T09:32:21Z</time>
      </trkpt>
      <trkpt lat="44.85364" lon="5.68884">
        <ele>745.13</ele>
        <time>2013-04-17T09:32:36Z</time>
      </trkpt>
      <trkpt lat="44.8533" lon="5.68919">
        <ele>749.25</ele>
        <time>2013-04-17T09:32:51Z</time>
      </trkpt>
      <trkpt lat="44.85296" lon="5.68956">
        <ele>755.56</ele>
        <time>2013-04-17T09:33:06Z</time>
      </trkpt>
      <trkpt lat="44.85262" lon="5.68987">
        <ele>753.22</ele>
        <time>2013-04-17T09:33:21Z</time>
      </trkpt>
      <trkpt lat="44.85229" lon="5.6902">
        <ele>752.33</ele>
        <time>2013-04-17T09:33:36Z</time>
      </trkpt>
      <trkpt lat="44.852" lon="5.69062">
        <ele>753.02</ele>
        <time>2013-04-17T09:33:51Z</time>
      </trkpt>
      <trkpt lat="44.85181" lon="5.69114">
        <ele>752.98</ele>
        <time>2013-04-17T09:34:06Z</time>
      </trkpt>
      <trkpt lat="44.85157" lon="5.69165">
        <ele>754.78</ele>
        <time>2013-04-17T09:34:21Z</time>
      </trkpt>
      <trkpt lat="44.8512" lon="5.69194">
        <ele>757.3</ele>
        <time>2013-04-17T09:34:36Z</time>
      </trkpt>
      <trkpt lat="44.85079" lon="5.69212">
        <ele>759.85</ele>
        <time>2013-04-17T09:34:51Z</time>
      </trkpt>
      <trkpt lat="44.85035" lon="5.69214">
        <ele>762.07</ele>
        <time>2013-04-17T09:35:06Z</time>
      </trkpt>
      <trkpt lat="44.84993" lon="5.69198">
        <ele>764.32</ele>
        <time>2013-04-17T09:35:21Z</time>
      </trkpt>
      <trkpt lat="44.8495" lon="5.69215">
        <ele>768.39</ele>
        <time>2013-04-17T09:35:36Z</time>
      </trkpt>
      <trkpt lat="44.84913" lon="5.69248">
        <ele>771.63</ele>
        <time>2013-04-17T09:35:51Z</time>
      </trkpt>
      <trkpt lat="44.84876" lon="5.69284">
        <ele>775.5</ele>
        <time>2013-04-17T09:36:06Z</time>
      </trkpt>
      <trkpt lat="44.84839" lon="5.69318">
        <ele>777.8</ele>
        <time>2013-04-17T09:36:21Z</time>
      </trkpt>
      <trkpt lat="44.84803" lon="5.69351">
        <ele>781.63</ele>
        <time>2013-04-17T09:36:36Z</time>
      </trkpt>
      <trkpt lat="44.84769" lon="5.69389">
        <ele>785.17</ele>
        <time>2013-04-17T09:36:51Z</time>
      </trkpt>
      <trkpt lat="44.84741" lon="5.69437">
        <ele>788.11</ele>
        <time>2013-04-17T09:37:06Z</time>
      </trkpt>
      <trkpt lat="44.84716" lon="5.69487">
        <ele>790.73</ele>
        <time>2013-04-17T09:37:21Z</time>
      </trkpt>
      <trkpt lat="44.84685" lon="5.69529">
        <ele>793.23</ele>
        <time>2013-04-17T09:37:36Z</time>
      </trkpt>
      <trkpt lat="44.84648" lon="5.69561">
        <ele>796.5</ele>
        <time>2013-04-17T09:37:51Z</time>
      </trkpt>
      <trkpt lat="44.8461" lon="5.69589">
        <ele>799.2</ele>
        <time>2013-04-17T09:38:06Z</time>
      </trkpt>
      <trkpt lat="44.84571" lon="5.69618">
        <ele>802.42</ele>
        <time>2013-04-17T09:38:21Z</time>
      </trkpt>
      <trkpt lat="44.84534" lon="5.69646">
        <ele>805.54</ele>
        <time>2013-04-17T09:38:36Z</time>
      </trkpt>
      <trkpt lat="44.84496" lon="5.69674">
        <ele>808.65</ele>
        <time>2013-04-17T09:38:51Z</time>
      </trkpt>
      <trkpt lat="44.84456" lon="5.69704">
        <ele>812.02</ele>
        <time>2013-04-17T09:39:06Z</time>
      </trkpt>
      <trkpt lat="44.84419" lon="5.69732">
        <ele>814.53</ele>
        <time>2013-04-17T09:39:21Z</time>
      </trkpt>
      <trkpt lat="44.84382" lon="5.69761">
        <ele>816.87</ele>
        <time>2013-04-17T09:39:36Z</time>
      </trkpt>
      <trkpt lat="44.84345" lon="5.69788">
        <ele>819.86</ele>
        <time>2013-04-17T09:39:51Z</time>
      </trkpt>
      <trkpt lat="44.84308" lon="5.69816">
        <ele>823.01</ele>
        <time>2013-04-17T09:40:06Z</time>
      </trkpt>
      <trkpt lat="44.84271" lon="5.69846">
        <ele>826.24</ele>
        <time>2013-04-17T09:40:21Z</time>
      </trkpt>
      <trkpt lat="44.84239" lon="5.69883">
        <ele>828.72</ele>
        <time>2013-04-17T09:40:36Z</time>
      </trkpt>
      <trkpt lat="44.84215" lon="5.69931">
        <ele>828.91</ele>
        <time>2013-04-17T09:40:51Z</time>
      </trkpt>
      <trkpt lat="44.84195" lon="5.6998">
        <ele>830.79</ele>
        <time>2013-04-17T09:41:06Z</time>
      </trkpt>
      <trkpt lat="44.84175" lon="5.7003">
        <ele>834.65</ele>
        <time>2013-04-17T09:41:21Z</time>
      </trkpt>
      <trkpt lat="44.84154" lon="5.7008">
        <ele>838.2</ele>
        <time>2013-04-17T09:41:36Z</time>
      </trkpt>
      <trkpt lat="44.84133" lon="5.70131">
        <ele>841.47</ele>
        <time>2013-04-17T09:41:51Z</time>
      </trkpt>
      <trkpt lat="44.84111" lon="5.70184">
        <ele>847.09</ele>
        <time>2013-04-17T09:42:06Z</time>
      </trkpt>
      <trkpt lat="44.84089" lon="5.70239">
        <ele>851.95</ele>
        <time>2013-04-17T09:42:21Z</time>
      </trkpt>
      <trkpt lat="44.84067" lon="5.70294">
        <ele>854.92</ele>
        <time>2013-04-17T09:42:36Z</time>
      </trkpt>
      <trkpt lat="44.84044" lon="5.70348">
        <ele>856.99</ele>
        <time>2013-04-17T09:42:51Z</time>
      </trkpt>
      <trkpt lat="44.84023" lon="5.70402">
        <ele>859.21</ele>
        <time>2013-04-17T09:43:06Z</time>
      </trkpt>
      <trkpt lat="44.8401" lon="5.70461">
        <ele>861.56</ele>
        <time>2013-04-17T09:43:21Z</time>
      </trkpt>
      <trkpt lat="44.84006" lon="5.70522">
        <ele>864.94</ele>
        <time>2013-04-17T09:43:36Z</time>
      </trkpt>
      <trkpt lat="44.84006" lon="5.70581">
        <ele>868.26</ele>
        <time>2013-04-17T09:43:51Z</time>
      </trkpt>
      <trkpt lat="44.84004" lon="5.70643">
        <ele>871.7</ele>
        <time>2013-04-17T09:44:06Z</time>
      </trkpt>
      <trkpt lat="44.84004" lon="5.70705">
        <ele>875.12</ele>
        <time>2013-04-17T09:44:21Z</time>
      </trkpt>
      <trkpt lat="44.8401" lon="5.70767">
        <ele>878.35</ele>
        <time>2013-04-17T09:44:36Z</time>
      </trkpt>
      <trkpt lat="44.84024" lon="5.70827">
        <ele>881.45</ele>
        <time>2013-04-17T09:44:51Z</time>
      </trkpt>
      <trkpt lat="44.84033" lon="5.7089">
        <ele>883.5</ele>
        <time>2013-04-17T09:45:06Z</time>
      </trkpt>
      <trkpt lat="44.84027" lon="5.70952">
        <ele>886.84</ele>
        <time>2013-04-17T09:45:21Z</time>
      </trkpt>
      <trkpt lat="44.84015" lon="5.70995">
        <ele>888.53</ele>
        <time>2013-04-17T09:45:36Z</time>
      </trkpt>
      <trkpt lat="44.84007" lon="5.71035">
        <ele>887.5</ele>
        <time>2013-04-17T09:45:51Z</time>
      </trkpt>
      <trkpt lat="44.84007" lon="5.71084">
        <ele>885.62</ele>
        <time>2013-04-17T09:46:06Z</time>
      </trkpt>
      <trkpt lat="44.8403" lon="5.71171">
        <ele>882.78</ele>
        <time>2013-04-17T09:46:21Z</time>
      </trkpt>
      <trkpt lat="44.84042" lon="5.71317">
        <ele>878.15</ele>
        <time>2013-04-17T09:46:36Z</time>
      </trkpt>
      <trkpt lat="44.84048" lon="5.71496">
        <ele>872.75</ele>
        <time>2013-04-17T09:46:51Z</time>
      </trkpt>
      <trkpt lat="44.84054" lon="5.71699">
        <ele>865.68</ele>
        <time>2013-04-17T09:47:06Z</time>
      </trkpt>
      <trkpt lat="44.8402" lon="5.71898">
        <ele>859.28</ele>
        <time>2013-04-17T09:47:21Z</time>
      </trkpt>
      <trkpt lat="44.83927" lon="5.72008">
        <ele>857.48</ele>
        <time>2013-04-17T09:47:36Z</time>
      </trkpt>
      <trkpt lat="44.83827" lon="5.72031">
        <ele>858.13</ele>
        <time>2013-04-17T09:47:51Z</time>
      </trkpt>
      <trkpt lat="44.83741" lon="5.72033">
        <ele>858.74</ele>
        <time>2013-04-17T09:48:06Z</time>
      </trkpt>
      <trkpt lat="44.8366" lon="5.72036">
        <ele>859.25</ele>
        <time>2013-04-17T09:48:21Z</time>
      </trkpt>
      <trkpt lat="44.83578" lon="5.72039">
        <ele>860.07</ele>
        <time>2013-04-17T09:48:36Z</time>
      </trkpt>
      <trkpt lat="44.83498" lon="5.72039">
        <ele>861.5</ele>
        <time>2013-04-17T09:48:51Z</time>
      </trkpt>
      <trkpt lat="44.83419" lon="5.7202">
        <ele>863.14</ele>
        <time>2013-04-17T09:49:06Z</time>
      </trkpt>
      <trkpt lat="44.83341" lon="5.71999">
        <ele>864.74</ele>
        <time>2013-04-17T09:49:21Z</time>
      </trkpt>
      <trkpt lat="44.83264" lon="5.71979">
        <ele>865.84</ele>
        <time>2013-04-17T09:49:36Z</time>
      </trkpt>
      <trkpt lat="44.83187" lon="5.71963">
        <ele>867.73</ele>
        <time>2013-04-17T09:49:51Z</time>
      </trkpt>
      <trkpt lat="44.83108" lon="5.71978">
        <ele>868.9</ele>
        <time>2013-04-17T09:50:06Z</time>
      </trkpt>
      <trkpt lat="44.83029" lon="5.71982">
        <ele>869.8</ele>
        <time>2013-04-17T09:50:21Z</time>
      </trkpt>
      <trkpt lat="44.8295" lon="5.71979">
        <ele>871.72</ele>
        <time>2013-04-17T09:50:36Z</time>
      </trkpt>
      <trkpt lat="44.8288" lon="5.72013">
        <ele>873.2</ele>
        <time>2013-04-17T09:50:51Z</time>
      </trkpt>
      <trkpt lat="44.82835" lon="5.72094">
        <ele>874.71</ele>
        <time>2013-04-17T09:51:06Z</time>
      </trkpt>
      <trkpt lat="44.82805" lon="5.72195">
        <ele>876.64</ele>
        <time>2013-04-17T09:51:21Z</time>
      </trkpt>
      <trkpt lat="44.82777" lon="5.72294">
        <ele>878.68</ele>
        <time>2013-04-17T09:51:36Z</time>
      </trkpt>
      <trkpt lat="44.82739" lon="5.72387">
        <ele>880.56</ele>
        <time>2013-04-17T09:51:51Z</time>
      </trkpt>
      <trkpt lat="44.82684" lon="5.72462">
        <ele>881.93</ele>
        <time>2013-04-17T09:52:06Z</time>
      </trkpt>
      <trkpt lat="44.82619" lon="5.72515">
        <ele>883.17</ele>
        <time>2013-04-17T09:52:21Z</time>
      </trkpt>
      <trkpt lat="44.82558" lon="5.72568">
        <ele>884.69</ele>
        <time>2013-04-17T09:52:36Z</time>
      </trkpt>
      <trkpt lat="44.82542" lon="5.72694">
        <ele>879.81</ele>
        <time>2013-04-17T09:52:51Z</time>
      </trkpt>
      <trkpt lat="44.82561" lon="5.72886">
        <ele>871.45</ele>
        <time>2013-04-17T09:53:06Z</time>
      </trkpt>
      <trkpt lat="44.82596" lon="5.73116">
        <ele>860.53</ele>
        <time>2013-04-17T09:53:21Z</time>
      </trkpt>
      <trkpt lat="44.82686" lon="5.73312">
        <ele>849.53</ele>
        <time>2013-04-17T09:53:36Z</time>
      </trkpt>
      <trkpt lat="44.82664" lon="5.73536">
        <ele>838.47</ele>
        <time>2013-04-17T09:53:51Z</time>
      </trkpt>
      <trkpt lat="44.82764" lon="5.73746">
        <ele>826.4</ele>
        <time>2013-04-17T09:54:06Z</time>
      </trkpt>
      <trkpt lat="44.82674" lon="5.73847">
        <ele>816.43</ele>
        <time>2013-04-17T09:54:21Z</time>
      </trkpt>
      <trkpt lat="44.82504" lon="5.73908">
        <ele>804.11</ele>
        <time>2013-04-17T09:54:36Z</time>
      </trkpt>
      <trkpt lat="44.82337" lon="5.73901">
        <ele>791.93</ele>
        <time>2013-04-17T09:54:51Z</time>
      </trkpt>
      <trkpt lat="44.82156" lon="5.7391">
        <ele>778.96</ele>
        <time>2013-04-17T09:55:06Z</time>
      </trkpt>
      <trkpt lat="44.82007" lon="5.73909">
        <ele>770.04</ele>
        <time>2013-04-17T09:55:21Z</time>
      </trkpt>
      <trkpt lat="44.81955" lon="5.74106">
        <ele>763.14</ele>
        <time>2013-04-17T09:55:36Z</time>
      </trkpt>
      <trkpt lat="44.81883" lon="5.7426">
        <ele>758.61</ele>
        <time>2013-04-17T09:55:51Z</time>
      </trkpt>
      <trkpt lat="44.81839" lon="5.74385">
        <ele>747.9</ele>
        <time>2013-04-17T09:56:06Z</time>
      </trkpt>
      <trkpt lat="44.81709" lon="5.74372">
        <ele>747.97</ele>
        <time>2013-04-17T09:56:21Z</time>
      </trkpt>
      <trkpt lat="44.81656" lon="5.74428">
        <ele>752.8</ele>
        <time>2013-04-17T09:56:36Z</time>
      </trkpt>
      <trkpt lat="44.81637" lon="5.74492">
        <ele>756.06</ele>
        <time>2013-04-17T09:56:51Z</time>
      </trkpt>
      <trkpt lat="44.81641" lon="5.74554">
        <ele>758.12</ele>
        <time>2013-04-17T09:57:06Z</time>
      </trkpt>
      <trkpt lat="44.81647" lon="5.74623">
        <ele>761.28</ele>
        <time>2013-04-17T09:57:21Z</time>
      </trkpt>
      <trkpt lat="44.81652" lon="5.74697">
        <ele>764.2</ele>
        <time>2013-04-17T09:57:36Z</time>
      </trkpt>
      <trkpt lat="44.8166" lon="5.74772">
        <ele>768.46</ele>
        <time>2013-04-17T09:57:51Z</time>
      </trkpt>
      <trkpt lat="44.81668" lon="5.74837">
        <ele>769.75</ele>
        <time>2013-04-17T09:58:06Z</time>
      </trkpt>
      <trkpt lat="44.81675" lon="5.74915">
        <ele>769.42</ele>
        <time>2013-04-17T09:58:21Z</time>
      </trkpt>
      <trkpt lat="44.81685" lon="5.75">
        <ele>771.86</ele>
        <time>2013-04-17T09:58:36Z</time>
      </trkpt>
      <trkpt lat="44.817" lon="5.75067">
        <ele>777.95</ele>
        <time>2013-04-17T09:58:51Z</time>
      </trkpt>
      <trkpt lat="44.81717" lon="5.75145">
        <ele>780.24</ele>
        <time>2013-04-17T09:59:06Z</time>
      </trkpt>
      <trkpt lat="44.81754" lon="5.75186">
        <ele>779.79</ele>
        <time>2013-04-17T09:59:21Z</time>
      </trkpt>
      <trkpt lat="44.81776" lon="5.75206">
        <ele>792.33</ele>
        <time>2013-04-17T10:03:34Z</time>
      </trkpt>
      <trkpt lat="44.81779" lon="5.75211">
        <ele>791.44</ele>
        <time>2013-04-17T10:03:36Z</time>
      </trkpt>
      <trkpt lat="44.81815" lon="5.75225">
        <ele>789.8</ele>
        <time>2013-04-17T10:03:51Z</time>
      </trkpt>
      <trkpt lat="44.81865" lon="5.75228">
        <ele>791.48</ele>
        <time>2013-04-17T10:04:06Z</time>
      </trkpt>
      <trkpt lat="44.81924" lon="5.75234">
        <ele>786.61</ele>
        <time>2013-04-17T10:04:21Z</time>
      </trkpt>
      <trkpt lat="44.8201" lon="5.75253">
        <ele>778.98</ele>
        <time>2013-04-17T10:04:36Z</time>
      </trkpt>
      <trkpt lat="44.82126" lon="5.75238">
        <ele>767.68</ele>
        <time>2013-04-17T10:04:51Z</time>
      </trkpt>
      <trkpt lat="44.82117" lon="5.75139">
        <ele>772.25</ele>
        <time>2013-04-17T10:05:06Z</time>
      </trkpt>
      <trkpt lat="44.82106" lon="5.75062">
        <ele>775.85</ele>
        <time>2013-04-17T10:05:21Z</time>
      </trkpt>
      <trkpt lat="44.82096" lon="5.74982">
        <ele>778.37</ele>
        <time>2013-04-17T10:05:36Z</time>
      </trkpt>
      <trkpt lat="44.82104" lon="5.7491">
        <ele>782.44</ele>
        <time>2013-04-17T10:05:51Z</time>
      </trkpt>
      <trkpt lat="44.82131" lon="5.74851">
        <ele>784.69</ele>
        <time>2013-04-17T10:06:06Z</time>
      </trkpt>
      <trkpt lat="44.82171" lon="5.74812">
        <ele>785.51</ele>
        <time>2013-04-17T10:06:21Z</time>
      </trkpt>
      <trkpt lat="44.82214" lon="5.7478">
        <ele>784.39</ele>
        <time>2013-04-17T10:06:36Z</time>
      </trkpt>
      <trkpt lat="44.82266" lon="5.74768">
        <ele>787.88</ele>
        <time>2013-04-17T10:06:51Z</time>
      </trkpt>
      <trkpt lat="44.8232" lon="5.74784">
        <ele>791.34</ele>
        <time>2013-04-17T10:07:06Z</time>
      </trkpt>
      <trkpt lat="44.82371" lon="5.74806">
        <ele>793.94</ele>
        <time>2013-04-17T10:07:21Z</time>
      </trkpt>
      <trkpt lat="44.82421" lon="5.74827">
        <ele>796.12</ele>
        <time>2013-04-17T10:07:36Z</time>
      </trkpt>
      <trkpt lat="44.82471" lon="5.74848">
        <ele>796.86</ele>
        <time>2013-04-17T10:07:51Z</time>
      </trkpt>
      <trkpt lat="44.82521" lon="5.74861">
        <ele>799.31</ele>
        <time>2013-04-17T10:08:06Z</time>
      </trkpt>
      <trkpt lat="44.82571" lon="5.74873">
        <ele>801.31</ele>
        <time>2013-04-17T10:08:21Z</time>
      </trkpt>
      <trkpt lat="44.82617" lon="5.74905">
        <ele>804.71</ele>
        <time>2013-04-17T10:08:36Z</time>
      </trkpt>
      <trkpt lat="44.82657" lon="5.74959">
        <ele>810.32</ele>
        <time>2013-04-17T10:08:51Z</time>
      </trkpt>
      <trkpt lat="44.82703" lon="5.74993">
        <ele>813.29</ele>
        <time>2013-04-17T10:09:06Z</time>
      </trkpt>
      <trkpt lat="44.82747" lon="5.75034">
        <ele>815.71</ele>
        <time>2013-04-17T10:09:21Z</time>
      </trkpt>
      <trkpt lat="44.82768" lon="5.75103">
        <ele>819.05</ele>
        <time>2013-04-17T10:09:36Z</time>
      </trkpt>
      <trkpt lat="44.82778" lon="5.75176">
        <ele>822.12</ele>
        <time>2013-04-17T10:09:51Z</time>
      </trkpt>
      <trkpt lat="44.82825" lon="5.75221">
        <ele>824.47</ele>
        <time>2013-04-17T10:10:06Z</time>
      </trkpt>
      <trkpt lat="44.8288" lon="5.75239">
        <ele>826.73</ele>
        <time>2013-04-17T10:10:21Z</time>
      </trkpt>
      <trkpt lat="44.82935" lon="5.75234">
        <ele>828.89</ele>
        <time>2013-04-17T10:10:36Z</time>
      </trkpt>
      <trkpt lat="44.82979" lon="5.75184">
        <ele>829.36</ele>
        <time>2013-04-17T10:10:51Z</time>
      </trkpt>
      <trkpt lat="44.83019" lon="5.75133">
        <ele>829.11</ele>
        <time>2013-04-17T10:11:06Z</time>
      </trkpt>
      <trkpt lat="44.83069" lon="5.75114">
        <ele>831.12</ele>
        <time>2013-04-17T10:11:21Z</time>
      </trkpt>
      <trkpt lat="44.8312" lon="5.75128">
        <ele>834.68</ele>
        <time>2013-04-17T10:11:36Z</time>
      </trkpt>
      <trkpt lat="44.83166" lon="5.75167">
        <ele>839.62</ele>
        <time>2013-04-17T10:11:51Z</time>
      </trkpt>
      <trkpt lat="44.83215" lon="5.75198">
        <ele>843.02</ele>
        <time>2013-04-17T10:12:06Z</time>
      </trkpt>
      <trkpt lat="44.83264" lon="5.75171">
        <ele>844.91</ele>
        <time>2013-04-17T10:12:21Z</time>
      </trkpt>
      <trkpt lat="44.83299" lon="5.75117">
        <ele>847.71</ele>
        <time>2013-04-17T10:12:36Z</time>
      </trkpt>
      <trkpt lat="44.83306" lon="5.75046">
        <ele>849.89</ele>
        <time>2013-04-17T10:12:51Z</time>
      </trkpt>
      <trkpt lat="44.83295" lon="5.74968">
        <ele>851.8</ele>
        <time>2013-04-17T10:13:06Z</time>
      </trkpt>
      <trkpt lat="44.83291" lon="5.74893">
        <ele>853.99</ele>
        <time>2013-04-17T10:13:21Z</time>
      </trkpt>
      <trkpt lat="44.83307" lon="5.74822">
        <ele>856.16</ele>
        <time>2013-04-17T10:13:36Z</time>
      </trkpt>
      <trkpt lat="44.83335" lon="5.74756">
        <ele>860.94</ele>
        <time>2013-04-17T10:13:51Z</time>
      </trkpt>
      <trkpt lat="44.83354" lon="5.74686">
        <ele>864.6</ele>
        <time>2013-04-17T10:14:06Z</time>
      </trkpt>
      <trkpt lat="44.83361" lon="5.74613">
        <ele>865.67</ele>
        <time>2013-04-17T10:14:21Z</time>
      </trkpt>
      <trkpt lat="44.83365" lon="5.74539">
        <ele>867.12</ele>
        <time>2013-04-17T10:14:36Z</time>
      </trkpt>
      <trkpt lat="44.83388" lon="5.7447">
        <ele>870.61</ele>
        <time>2013-04-17T10:14:51Z</time>
      </trkpt>
      <trkpt lat="44.83424" lon="5.74417">
        <ele>872.32</ele>
        <time>2013-04-17T10:15:06Z</time>
      </trkpt>
      <trkpt lat="44.83447" lon="5.74353">
        <ele>873.98</ele>
        <time>2013-04-17T10:15:21Z</time>
      </trkpt>
      <trkpt lat="44.83452" lon="5.74282">
        <ele>876.08</ele>
        <time>2013-04-17T10:15:36Z</time>
      </trkpt>
      <trkpt lat="44.83459" lon="5.74212">
        <ele>877.89</ele>
        <time>2013-04-17T10:15:51Z</time>
      </trkpt>
      <trkpt lat="44.83482" lon="5.74144">
        <ele>880.44</ele>
        <time>2013-04-17T10:16:06Z</time>
      </trkpt>
      <trkpt lat="44.8351" lon="5.7408">
        <ele>882.32</ele>
        <time>2013-04-17T10:16:21Z</time>
      </trkpt>
      <trkpt lat="44.83536" lon="5.74015">
        <ele>883.25</ele>
        <time>2013-04-17T10:16:36Z</time>
      </trkpt>
      <trkpt lat="44.83552" lon="5.73942">
        <ele>885.02</ele>
        <time>2013-04-17T10:16:51Z</time>
      </trkpt>
      <trkpt lat="44.83565" lon="5.7387">
        <ele>886.87</ele>
        <time>2013-04-17T10:17:06Z</time>
      </trkpt>
      <trkpt lat="44.83579" lon="5.738">
        <ele>890.61</ele>
        <time>2013-04-17T10:17:21Z</time>
      </trkpt>
      <trkpt lat="44.83594" lon="5.73767">
        <ele>894.47</ele>
        <time>2013-04-17T10:18:04Z</time>
      </trkpt>
      <trkpt lat="44.83596" lon="5.73763">
        <ele>894.37</ele>
        <time>2013-04-17T10:18:06Z</time>
      </trkpt>
      <trkpt lat="44.83647" lon="5.73744">
        <ele>892.06</ele>
        <time>2013-04-17T10:18:21Z</time>
      </trkpt>
      <trkpt lat="44.83714" lon="5.73782">
        <ele>890.58</ele>
        <time>2013-04-17T10:18:36Z</time>
      </trkpt>
      <trkpt lat="44.83797" lon="5.73806">
        <ele>888.73</ele>
        <time>2013-04-17T10:18:51Z</time>
      </trkpt>
      <trkpt lat="44.83898" lon="5.73848">
        <ele>884.52</ele>
        <time>2013-04-17T10:19:06Z</time>
      </trkpt>
      <trkpt lat="44.83996" lon="5.73926">
        <ele>878.87</ele>
        <time>2013-04-17T10:19:21Z</time>
      </trkpt>
      <trkpt lat="44.8408" lon="5.74024">
        <ele>876.49</ele>
        <time>2013-04-17T10:19:36Z</time>
      </trkpt>
      <trkpt lat="44.84187" lon="5.74119">
        <ele>876.71</ele>
        <time>2013-04-17T10:19:51Z</time>
      </trkpt>
      <trkpt lat="44.84278" lon="5.74232">
        <ele>875.4</ele>
        <time>2013-04-17T10:20:06Z</time>
      </trkpt>
      <trkpt lat="44.84396" lon="5.74159">
        <ele>870.22</ele>
        <time>2013-04-17T10:20:21Z</time>
      </trkpt>
      <trkpt lat="44.8447" lon="5.74129">
        <ele>860.99</ele>
        <time>2013-04-17T10:20:36Z</time>
      </trkpt>
      <trkpt lat="44.84435" lon="5.74287">
        <ele>862.89</ele>
        <time>2013-04-17T10:20:51Z</time>
      </trkpt>
      <trkpt lat="44.84396" lon="5.74438">
        <ele>851.23</ele>
        <time>2013-04-17T10:21:06Z</time>
      </trkpt>
      <trkpt lat="44.8433" lon="5.74617">
        <ele>864.74</ele>
        <time>2013-04-17T10:21:21Z</time>
      </trkpt>
      <trkpt lat="44.84322" lon="5.74802">
        <ele>869.78</ele>
        <time>2013-04-17T10:21:36Z</time>
      </trkpt>
      <trkpt lat="44.84227" lon="5.74899">
        <ele>869.34</ele>
        <time>2013-04-17T10:21:51Z</time>
      </trkpt>
      <trkpt lat="44.84125" lon="5.74969">
        <ele>857.1</ele>
        <time>2013-04-17T10:22:06Z</time>
      </trkpt>
      <trkpt lat="44.84178" lon="5.75132">
        <ele>852.59</ele>
        <time>2013-04-17T10:22:21Z</time>
      </trkpt>
      <trkpt lat="44.84211" lon="5.75299">
        <ele>848.08</ele>
        <time>2013-04-17T10:22:36Z</time>
      </trkpt>
      <trkpt lat="44.84158" lon="5.75453">
        <ele>854.94</ele>
        <time>2013-04-17T10:22:51Z</time>
      </trkpt>
      <trkpt lat="44.84051" lon="5.7553">
        <ele>843.98</ele>
        <time>2013-04-17T10:23:06Z</time>
      </trkpt>
      <trkpt lat="44.83967" lon="5.75675">
        <ele>834.33</ele>
        <time>2013-04-17T10:23:21Z</time>
      </trkpt>
      <trkpt lat="44.83987" lon="5.75818">
        <ele>836.95</ele>
        <time>2013-04-17T10:23:36Z</time>
      </trkpt>
      <trkpt lat="44.84117" lon="5.75832">
        <ele>832.03</ele>
        <time>2013-04-17T10:23:51Z</time>
      </trkpt>
      <trkpt lat="44.84229" lon="5.75916">
        <ele>829.19</ele>
        <time>2013-04-17T10:24:06Z</time>
      </trkpt>
      <trkpt lat="44.84339" lon="5.76011">
        <ele>826.29</ele>
        <time>2013-04-17T10:24:21Z</time>
      </trkpt>
      <trkpt lat="44.84421" lon="5.76143">
        <ele>823.38</ele>
        <time>2013-04-17T10:24:36Z</time>
      </trkpt>
      <trkpt lat="44.84509" lon="5.76267">
        <ele>819.82</ele>
        <time>2013-04-17T10:24:51Z</time>
      </trkpt>
      <trkpt lat="44.8454" lon="5.76439">
        <ele>817.47</ele>
        <time>2013-04-17T10:25:06Z</time>
      </trkpt>
      <trkpt lat="44.84623" lon="5.7657">
        <ele>814.48</ele>
        <time>2013-04-17T10:25:21Z</time>
      </trkpt>
      <trkpt lat="44.84727" lon="5.76657">
        <ele>811.76</ele>
        <time>2013-04-17T10:25:36Z</time>
      </trkpt>
      <trkpt lat="44.84817" lon="5.7656">
        <ele>803.4</ele>
        <time>2013-04-17T10:25:51Z</time>
      </trkpt>
      <trkpt lat="44.84877" lon="5.76485">
        <ele>802.18</ele>
        <time>2013-04-17T10:26:06Z</time>
      </trkpt>
      <trkpt lat="44.84935" lon="5.76439">
        <ele>808.18</ele>
        <time>2013-04-17T10:26:21Z</time>
      </trkpt>
      <trkpt lat="44.84992" lon="5.76405">
        <ele>812.5</ele>
        <time>2013-04-17T10:26:36Z</time>
      </trkpt>
      <trkpt lat="44.85048" lon="5.76371">
        <ele>816.4</ele>
        <time>2013-04-17T10:26:51Z</time>
      </trkpt>
      <trkpt lat="44.85103" lon="5.7634">
        <ele>818.65</ele>
        <time>2013-04-17T10:27:06Z</time>
      </trkpt>
      <trkpt lat="44.85167" lon="5.76303">
        <ele>818.92</ele>
        <time>2013-04-17T10:27:21Z</time>
      </trkpt>
      <trkpt lat="44.85234" lon="5.76264">
        <ele>819.74</ele>
        <time>2013-04-17T10:27:36Z</time>
      </trkpt>
      <trkpt lat="44.85303" lon="5.76224">
        <ele>819.73</ele>
        <time>2013-04-17T10:27:51Z</time>
      </trkpt>
      <trkpt lat="44.85375" lon="5.76207">
        <ele>816.73</ele>
        <time>2013-04-17T10:28:06Z</time>
      </trkpt>
      <trkpt lat="44.8545" lon="5.76249">
        <ele>818.51</ele>
        <time>2013-04-17T10:28:21Z</time>
      </trkpt>
      <trkpt lat="44.85528" lon="5.76293">
        <ele>820.18</ele>
        <time>2013-04-17T10:28:36Z</time>
      </trkpt>
      <trkpt lat="44.8561" lon="5.76339">
        <ele>821.18</ele>
        <time>2013-04-17T10:28:51Z</time>
      </trkpt>
      <trkpt lat="44.85695" lon="5.76385">
        <ele>821.19</ele>
        <time>2013-04-17T10:29:06Z</time>
      </trkpt>
      <trkpt lat="44.85773" lon="5.76456">
        <ele>819.19</ele>
        <time>2013-04-17T10:29:21Z</time>
      </trkpt>
      <trkpt lat="44.8582" lon="5.76636">
        <ele>811.98</ele>
        <time>2013-04-17T10:29:36Z</time>
      </trkpt>
      <trkpt lat="44.85969" lon="5.7671">
        <ele>801.86</ele>
        <time>2013-04-17T10:29:51Z</time>
      </trkpt>
      <trkpt lat="44.86092" lon="5.76694">
        <ele>792.91</ele>
        <time>2013-04-17T10:30:06Z</time>
      </trkpt>
      <trkpt lat="44.86102" lon="5.76671">
        <ele>790.51</ele>
        <time>2013-04-17T10:32:43Z</time>
      </trkpt>
      <trkpt lat="44.86121" lon="5.76638">
        <ele>788.08</ele>
        <time>2013-04-17T10:32:51Z</time>
      </trkpt>
      <trkpt lat="44.86209" lon="5.7664">
        <ele>776.72</ele>
        <time>2013-04-17T10:33:06Z</time>
      </trkpt>
      <trkpt lat="44.86215" lon="5.76822">
        <ele>763.27</ele>
        <time>2013-04-17T10:33:21Z</time>
      </trkpt>
      <trkpt lat="44.86263" lon="5.76954">
        <ele>755.05</ele>
        <time>2013-04-17T10:33:36Z</time>
      </trkpt>
      <trkpt lat="44.86276" lon="5.77127">
        <ele>742.64</ele>
        <time>2013-04-17T10:33:51Z</time>
      </trkpt>
      <trkpt lat="44.86375" lon="5.77284">
        <ele>730.31</ele>
        <time>2013-04-17T10:34:06Z</time>
      </trkpt>
      <trkpt lat="44.86529" lon="5.77398">
        <ele>714.37</ele>
        <time>2013-04-17T10:34:21Z</time>
      </trkpt>
      <trkpt lat="44.86648" lon="5.77457">
        <ele>698.29</ele>
        <time>2013-04-17T10:34:36Z</time>
      </trkpt>
      <trkpt lat="44.86656" lon="5.77605">
        <ele>684.26</ele>
        <time>2013-04-17T10:34:51Z</time>
      </trkpt>
      <trkpt lat="44.86662" lon="5.77728">
        <ele>687</ele>
        <time>2013-04-17T10:35:06Z</time>
      </trkpt>
      <trkpt lat="44.8667" lon="5.77756">
        <ele>692.12</ele>
        <time>2013-04-17T10:35:28Z</time>
      </trkpt>
      <trkpt lat="44.86664" lon="5.77717">
        <ele>693.59</ele>
        <time>2013-04-17T10:35:36Z</time>
      </trkpt>
      <trkpt lat="44.86663" lon="5.77613">
        <ele>698.49</ele>
        <time>2013-04-17T10:35:51Z</time>
      </trkpt>
      <trkpt lat="44.86672" lon="5.77511">
        <ele>694.06</ele>
        <time>2013-04-17T10:36:06Z</time>
      </trkpt>
      <trkpt lat="44.86652" lon="5.77366">
        <ele>683.34</ele>
        <time>2013-04-17T10:36:21Z</time>
      </trkpt>
      <trkpt lat="44.86605" lon="5.77153">
        <ele>669.83</ele>
        <time>2013-04-17T10:36:36Z</time>
      </trkpt>
      <trkpt lat="44.8658" lon="5.76967">
        <ele>655.2</ele>
        <time>2013-04-17T10:36:51Z</time>
      </trkpt>
      <trkpt lat="44.8658" lon="5.76782">
        <ele>640.55</ele>
        <time>2013-04-17T10:37:06Z</time>
      </trkpt>
      <trkpt lat="44.86639" lon="5.76605">
        <ele>631.7</ele>
        <time>2013-04-17T10:37:21Z</time>
      </trkpt>
      <trkpt lat="44.86809" lon="5.76577">
        <ele>613.46</ele>
        <time>2013-04-17T10:37:36Z</time>
      </trkpt>
      <trkpt lat="44.86902" lon="5.76656">
        <ele>600.8</ele>
        <time>2013-04-17T10:37:51Z</time>
      </trkpt>
      <trkpt lat="44.86909" lon="5.76812">
        <ele>592.48</ele>
        <time>2013-04-17T10:38:06Z</time>
      </trkpt>
      <trkpt lat="44.8692" lon="5.76996">
        <ele>586.72</ele>
        <time>2013-04-17T10:38:21Z</time>
      </trkpt>
      <trkpt lat="44.86974" lon="5.7717">
        <ele>570.54</ele>
        <time>2013-04-17T10:38:36Z</time>
      </trkpt>
      <trkpt lat="44.87054" lon="5.77329">
        <ele>554.48</ele>
        <time>2013-04-17T10:38:51Z</time>
      </trkpt>
      <trkpt lat="44.87077" lon="5.77198">
        <ele>539.35</ele>
        <time>2013-04-17T10:39:06Z</time>
      </trkpt>
      <trkpt lat="44.87119" lon="5.77075">
        <ele>530.44</ele>
        <time>2013-04-17T10:39:21Z</time>
      </trkpt>
      <trkpt lat="44.87134" lon="5.77007">
        <ele>529.6</ele>
        <time>2013-04-17T10:39:36Z</time>
      </trkpt>
      <trkpt lat="44.87191" lon="5.76933">
        <ele>527.91</ele>
        <time>2013-04-17T10:39:51Z</time>
      </trkpt>
      <trkpt lat="44.87196" lon="5.77051">
        <ele>520.96</ele>
        <time>2013-04-17T10:40:06Z</time>
      </trkpt>
      <trkpt lat="44.87207" lon="5.77169">
        <ele>518.7</ele>
        <time>2013-04-17T10:40:21Z</time>
      </trkpt>
      <trkpt lat="44.87217" lon="5.77185">
        <ele>521.99</ele>
        <time>2013-04-17T10:40:36Z</time>
      </trkpt>
      <trkpt lat="44.8726" lon="5.77314">
        <ele>511.24</ele>
        <time>2013-04-17T10:40:51Z</time>
      </trkpt>
      <trkpt lat="44.87323" lon="5.77344">
        <ele>503.86</ele>
        <time>2013-04-17T10:41:06Z</time>
      </trkpt>
      <trkpt lat="44.87337" lon="5.77304">
        <ele>506.47</ele>
        <time>2013-04-17T10:41:21Z</time>
      </trkpt>
      <trkpt lat="44.87347" lon="5.77312">
        <ele>510.71</ele>
        <time>2013-04-17T10:41:36Z</time>
      </trkpt>
      <trkpt lat="44.87356" lon="5.77346">
        <ele>514.81</ele>
        <time>2013-04-17T10:41:51Z</time>
      </trkpt>
      <trkpt lat="44.8738" lon="5.77365">
        <ele>518.23</ele>
        <time>2013-04-17T10:42:06Z</time>
      </trkpt>
      <trkpt lat="44.87407" lon="5.7737">
        <ele>520.11</ele>
        <time>2013-04-17T10:42:21Z</time>
      </trkpt>
      <trkpt lat="44.87432" lon="5.77357">
        <ele>522.24</ele>
        <time>2013-04-17T10:42:36Z</time>
      </trkpt>
      <trkpt lat="44.87421" lon="5.77343">
        <ele>526.8</ele>
        <time>2013-04-17T10:42:51Z</time>
      </trkpt>
      <trkpt lat="44.87396" lon="5.77342">
        <ele>531.36</ele>
        <time>2013-04-17T10:43:06Z</time>
      </trkpt>
      <trkpt lat="44.87383" lon="5.77315">
        <ele>535.21</ele>
        <time>2013-04-17T10:43:21Z</time>
      </trkpt>
      <trkpt lat="44.87391" lon="5.77294">
        <ele>537.88</ele>
        <time>2013-04-17T10:43:36Z</time>
      </trkpt>
      <trkpt lat="44.87406" lon="5.77314">
        <ele>540.78</ele>
        <time>2013-04-17T10:43:51Z</time>
      </trkpt>
      <trkpt lat="44.87427" lon="5.77298">
        <ele>542.12</ele>
        <time>2013-04-17T10:44:06Z</time>
      </trkpt>
      <trkpt lat="44.87448" lon="5.77292">
        <ele>543.38</ele>
        <time>2013-04-17T10:44:21Z</time>
      </trkpt>
      <trkpt lat="44.87471" lon="5.77295">
        <ele>542.7</ele>
        <time>2013-04-17T10:44:36Z</time>
      </trkpt>
      <trkpt lat="44.875" lon="5.77288">
        <ele>542.25</ele>
        <time>2013-04-17T10:44:51Z</time>
      </trkpt>
      <trkpt lat="44.87518" lon="5.77272">
        <ele>544.83</ele>
        <time>2013-04-17T10:45:06Z</time>
      </trkpt>
      <trkpt lat="44.87494" lon="5.77272">
        <ele>554.49</ele>
        <time>2013-04-17T10:45:21Z</time>
      </trkpt>
      <trkpt lat="44.8747" lon="5.77261">
        <ele>562.87</ele>
        <time>2013-04-17T10:45:36Z</time>
      </trkpt>
      <trkpt lat="44.87445" lon="5.77249">
        <ele>567.6</ele>
        <time>2013-04-17T10:45:51Z</time>
      </trkpt>
      <trkpt lat="44.87425" lon="5.77225">
        <ele>571.9</ele>
        <time>2013-04-17T10:46:06Z</time>
      </trkpt>
      <trkpt lat="44.87431" lon="5.77205">
        <ele>575.14</ele>
        <time>2013-04-17T10:46:21Z</time>
      </trkpt>
      <trkpt lat="44.87452" lon="5.77209">
        <ele>576.35</ele>
        <time>2013-04-17T10:46:36Z</time>
      </trkpt>
      <trkpt lat="44.87483" lon="5.77209">
        <ele>578.94</ele>
        <time>2013-04-17T10:46:51Z</time>
      </trkpt>
      <trkpt lat="44.87525" lon="5.772">
        <ele>582.46</ele>
        <time>2013-04-17T10:47:06Z</time>
      </trkpt>
      <trkpt lat="44.87562" lon="5.77182">
        <ele>585.28</ele>
        <time>2013-04-17T10:47:21Z</time>
      </trkpt>
      <trkpt lat="44.87597" lon="5.77163">
        <ele>587.22</ele>
        <time>2013-04-17T10:47:36Z</time>
      </trkpt>
      <trkpt lat="44.87636" lon="5.7714">
        <ele>588.35</ele>
        <time>2013-04-17T10:47:51Z</time>
      </trkpt>
      <trkpt lat="44.87645" lon="5.77117">
        <ele>591.84</ele>
        <time>2013-04-17T10:48:06Z</time>
      </trkpt>
      <trkpt lat="44.87616" lon="5.77113">
        <ele>598.32</ele>
        <time>2013-04-17T10:48:21Z</time>
      </trkpt>
      <trkpt lat="44.87586" lon="5.77116">
        <ele>603.45</ele>
        <time>2013-04-17T10:48:36Z</time>
      </trkpt>
      <trkpt lat="44.87558" lon="5.77108">
        <ele>608.32</ele>
        <time>2013-04-17T10:48:51Z</time>
      </trkpt>
      <trkpt lat="44.87528" lon="5.77091">
        <ele>612.55</ele>
        <time>2013-04-17T10:49:06Z</time>
      </trkpt>
      <trkpt lat="44.87498" lon="5.77076">
        <ele>617.83</ele>
        <time>2013-04-17T10:49:21Z</time>
      </trkpt>
      <trkpt lat="44.87469" lon="5.77056">
        <ele>620.93</ele>
        <time>2013-04-17T10:49:36Z</time>
      </trkpt>
      <trkpt lat="44.87452" lon="5.77014">
        <ele>622.67</ele>
        <time>2013-04-17T10:49:51Z</time>
      </trkpt>
      <trkpt lat="44.87454" lon="5.76969">
        <ele>625.15</ele>
        <time>2013-04-17T10:50:06Z</time>
      </trkpt>
      <trkpt lat="44.87448" lon="5.76921">
        <ele>628.12</ele>
        <time>2013-04-17T10:50:21Z</time>
      </trkpt>
      <trkpt lat="44.87441" lon="5.76868">
        <ele>628.72</ele>
        <time>2013-04-17T10:50:36Z</time>
      </trkpt>
      <trkpt lat="44.87436" lon="5.768">
        <ele>629.98</ele>
        <time>2013-04-17T10:50:51Z</time>
      </trkpt>
      <trkpt lat="44.87438" lon="5.76733">
        <ele>631.81</ele>
        <time>2013-04-17T10:51:06Z</time>
      </trkpt>
      <trkpt lat="44.87448" lon="5.76669">
        <ele>635.48</ele>
        <time>2013-04-17T10:51:21Z</time>
      </trkpt>
      <trkpt lat="44.87456" lon="5.76598">
        <ele>637.75</ele>
        <time>2013-04-17T10:51:36Z</time>
      </trkpt>
      <trkpt lat="44.87472" lon="5.76544">
        <ele>641.94</ele>
        <time>2013-04-17T10:51:51Z</time>
      </trkpt>
      <trkpt lat="44.87459" lon="5.76489">
        <ele>643.81</ele>
        <time>2013-04-17T10:52:06Z</time>
      </trkpt>
      <trkpt lat="44.87429" lon="5.76392">
        <ele>639.04</ele>
        <time>2013-04-17T10:52:21Z</time>
      </trkpt>
      <trkpt lat="44.87414" lon="5.76257">
        <ele>628.55</ele>
        <time>2013-04-17T10:52:36Z</time>
      </trkpt>
      <trkpt lat="44.87407" lon="5.76104">
        <ele>616.94</ele>
        <time>2013-04-17T10:52:51Z</time>
      </trkpt>
      <trkpt lat="44.87324" lon="5.75978">
        <ele>602.29</ele>
        <time>2013-04-17T10:53:06Z</time>
      </trkpt>
      <trkpt lat="44.87291" lon="5.75826">
        <ele>592.36</ele>
        <time>2013-04-17T10:53:21Z</time>
      </trkpt>
      <trkpt lat="44.87226" lon="5.75655">
        <ele>576.31</ele>
        <time>2013-04-17T10:53:36Z</time>
      </trkpt>
      <trkpt lat="44.87171" lon="5.75473">
        <ele>571.56</ele>
        <time>2013-04-17T10:53:51Z</time>
      </trkpt>
      <trkpt lat="44.87123" lon="5.75336">
        <ele>567.57</ele>
        <time>2013-04-17T10:54:06Z</time>
      </trkpt>
      <trkpt lat="44.87098" lon="5.75211">
        <ele>572.32</ele>
        <time>2013-04-17T10:54:21Z</time>
      </trkpt>
      <trkpt lat="44.87092" lon="5.75142">
        <ele>576.71</ele>
        <time>2013-04-17T10:54:36Z</time>
      </trkpt>
      <trkpt lat="44.87086" lon="5.75086">
        <ele>580.47</ele>
        <time>2013-04-17T10:54:51Z</time>
      </trkpt>
      <trkpt lat="44.87085" lon="5.75033">
        <ele>582.42</ele>
        <time>2013-04-17T10:55:06Z</time>
      </trkpt>
      <trkpt lat="44.87088" lon="5.74994">
        <ele>586.04</ele>
        <time>2013-04-17T10:55:21Z</time>
      </trkpt>
      <trkpt lat="44.87089" lon="5.74956">
        <ele>589.64</ele>
        <time>2013-04-17T10:55:36Z</time>
      </trkpt>
      <trkpt lat="44.87093" lon="5.74918">
        <ele>593.64</ele>
        <time>2013-04-17T10:55:51Z</time>
      </trkpt>
      <trkpt lat="44.87094" lon="5.74871">
        <ele>594.78</ele>
        <time>2013-04-17T10:56:06Z</time>
      </trkpt>
      <trkpt lat="44.8706" lon="5.74772">
        <ele>586.35</ele>
        <time>2013-04-17T10:56:21Z</time>
      </trkpt>
      <trkpt lat="44.87045" lon="5.74705">
        <ele>583.06</ele>
        <time>2013-04-17T10:56:36Z</time>
      </trkpt>
      <trkpt lat="44.8706" lon="5.74623">
        <ele>582.16</ele>
        <time>2013-04-17T10:56:51Z</time>
      </trkpt>
      <trkpt lat="44.87074" lon="5.7454">
        <ele>584.16</ele>
        <time>2013-04-17T10:57:06Z</time>
      </trkpt>
      <trkpt lat="44.8706" lon="5.74441">
        <ele>583.06</ele>
        <time>2013-04-17T10:57:21Z</time>
      </trkpt>
      <trkpt lat="44.8703" lon="5.74368">
        <ele>586.64</ele>
        <time>2013-04-17T10:57:36Z</time>
      </trkpt>
      <trkpt lat="44.86994" lon="5.74288">
        <ele>587.36</ele>
        <time>2013-04-17T10:57:51Z</time>
      </trkpt>
      <trkpt lat="44.8697" lon="5.74211">
        <ele>592.83</ele>
        <time>2013-04-17T10:58:06Z</time>
      </trkpt>
      <trkpt lat="44.86978" lon="5.74171">
        <ele>596.95</ele>
        <time>2013-04-17T10:58:21Z</time>
      </trkpt>
      <trkpt lat="44.87003" lon="5.74146">
        <ele>599.23</ele>
        <time>2013-04-17T10:58:36Z</time>
      </trkpt>
      <trkpt lat="44.87024" lon="5.74116">
        <ele>601.88</ele>
        <time>2013-04-17T10:58:51Z</time>
      </trkpt>
      <trkpt lat="44.87024" lon="5.74071">
        <ele>606.66</ele>
        <time>2013-04-17T10:59:06Z</time>
      </trkpt>
      <trkpt lat="44.87035" lon="5.74024">
        <ele>610.63</ele>
        <time>2013-04-17T10:59:21Z</time>
      </trkpt>
      <trkpt lat="44.87054" lon="5.73988">
        <ele>614.45</ele>
        <time>2013-04-17T10:59:36Z</time>
      </trkpt>
      <trkpt lat="44.87069" lon="5.73951">
        <ele>619.69</ele>
        <time>2013-04-17T10:59:51Z</time>
      </trkpt>
      <trkpt lat="44.87085" lon="5.73902">
        <ele>622.81</ele>
        <time>2013-04-17T11:00:06Z</time>
      </trkpt>
      <trkpt lat="44.871" lon="5.73852">
        <ele>626.49</ele>
        <time>2013-04-17T11:00:21Z</time>
      </trkpt>
      <trkpt lat="44.87109" lon="5.73794">
        <ele>629.54</ele>
        <time>2013-04-17T11:00:36Z</time>
      </trkpt>
      <trkpt lat="44.87124" lon="5.73743">
        <ele>632.91</ele>
        <time>2013-04-17T11:00:51Z</time>
      </trkpt>
      <trkpt lat="44.87143" lon="5.73691">
        <ele>636.05</ele>
        <time>2013-04-17T11:01:06Z</time>
      </trkpt>
      <trkpt lat="44.87148" lon="5.73635">
        <ele>638.64</ele>
        <time>2013-04-17T11:01:21Z</time>
      </trkpt>
      <trkpt lat="44.87164" lon="5.73586">
        <ele>640.32</ele>
        <time>2013-04-17T11:01:36Z</time>
      </trkpt>
      <trkpt lat="44.8719" lon="5.73557">
        <ele>644.29</ele>
        <time>2013-04-17T11:01:51Z</time>
      </trkpt>
      <trkpt lat="44.87198" lon="5.73511">
        <ele>647.39</ele>
        <time>2013-04-17T11:02:06Z</time>
      </trkpt>
      <trkpt lat="44.87172" lon="5.73467">
        <ele>649.9</ele>
        <time>2013-04-17T11:02:21Z</time>
      </trkpt>
      <trkpt lat="44.87164" lon="5.73412">
        <ele>651.84</ele>
        <time>2013-04-17T11:02:36Z</time>
      </trkpt>
      <trkpt lat="44.87199" lon="5.73383">
        <ele>652.71</ele>
        <time>2013-04-17T11:02:51Z</time>
      </trkpt>
      <trkpt lat="44.8724" lon="5.73383">
        <ele>655.6</ele>
        <time>2013-04-17T11:03:06Z</time>
      </trkpt>
      <trkpt lat="44.87272" lon="5.73402">
        <ele>661.18</ele>
        <time>2013-04-17T11:03:21Z</time>
      </trkpt>
      <trkpt lat="44.873" lon="5.73421">
        <ele>666.14</ele>
        <time>2013-04-17T11:03:36Z</time>
      </trkpt>
      <trkpt lat="44.87328" lon="5.7343">
        <ele>669.4</ele>
        <time>2013-04-17T11:03:51Z</time>
      </trkpt>
      <trkpt lat="44.87355" lon="5.73444">
        <ele>672.52</ele>
        <time>2013-04-17T11:04:06Z</time>
      </trkpt>
      <trkpt lat="44.87379" lon="5.73464">
        <ele>675.88</ele>
        <time>2013-04-17T11:04:21Z</time>
      </trkpt>
      <trkpt lat="44.87398" lon="5.73493">
        <ele>679.67</ele>
        <time>2013-04-17T11:04:36Z</time>
      </trkpt>
      <trkpt lat="44.87421" lon="5.7348">
        <ele>682.65</ele>
        <time>2013-04-17T11:04:51Z</time>
      </trkpt>
      <trkpt lat="44.87451" lon="5.73467">
        <ele>685.18</ele>
        <time>2013-04-17T11:05:06Z</time>
      </trkpt>
      <trkpt lat="44.87482" lon="5.73457">
        <ele>687.21</ele>
        <time>2013-04-17T11:05:21Z</time>
      </trkpt>
      <trkpt lat="44.87528" lon="5.73444">
        <ele>687.27</ele>
        <time>2013-04-17T11:05:36Z</time>
      </trkpt>
      <trkpt lat="44.87581" lon="5.73511">
        <ele>684.3</ele>
        <time>2013-04-17T11:05:51Z</time>
      </trkpt>
      <trkpt lat="44.87643" lon="5.73422">
        <ele>681.18</ele>
        <time>2013-04-17T11:06:06Z</time>
      </trkpt>
      <trkpt lat="44.87687" lon="5.73304">
        <ele>681.39</ele>
        <time>2013-04-17T11:06:21Z</time>
      </trkpt>
      <trkpt lat="44.87707" lon="5.73167">
        <ele>681.03</ele>
        <time>2013-04-17T11:06:36Z</time>
      </trkpt>
      <trkpt lat="44.87778" lon="5.73072">
        <ele>679.71</ele>
        <time>2013-04-17T11:06:51Z</time>
      </trkpt>
      <trkpt lat="44.87863" lon="5.73023">
        <ele>678.58</ele>
        <time>2013-04-17T11:07:06Z</time>
      </trkpt>
      <trkpt lat="44.87789" lon="5.72968">
        <ele>680</ele>
        <time>2013-04-17T11:07:21Z</time>
      </trkpt>
      <trkpt lat="44.87704" lon="5.7296">
        <ele>681.5</ele>
        <time>2013-04-17T11:07:36Z</time>
      </trkpt>
      <trkpt lat="44.87622" lon="5.72969">
        <ele>683.18</ele>
        <time>2013-04-17T11:07:51Z</time>
      </trkpt>
      <trkpt lat="44.87539" lon="5.72989">
        <ele>685.24</ele>
        <time>2013-04-17T11:08:06Z</time>
      </trkpt>
      <trkpt lat="44.87459" lon="5.72972">
        <ele>686.73</ele>
        <time>2013-04-17T11:08:21Z</time>
      </trkpt>
      <trkpt lat="44.87439" lon="5.7289">
        <ele>687.22</ele>
        <time>2013-04-17T11:08:36Z</time>
      </trkpt>
      <trkpt lat="44.87499" lon="5.72795">
        <ele>686.85</ele>
        <time>2013-04-17T11:08:51Z</time>
      </trkpt>
      <trkpt lat="44.87519" lon="5.72672">
        <ele>685.74</ele>
        <time>2013-04-17T11:09:06Z</time>
      </trkpt>
      <trkpt lat="44.87463" lon="5.72546">
        <ele>685.86</ele>
        <time>2013-04-17T11:09:21Z</time>
      </trkpt>
      <trkpt lat="44.87389" lon="5.72459">
        <ele>685.59</ele>
        <time>2013-04-17T11:09:36Z</time>
      </trkpt>
      <trkpt lat="44.87365" lon="5.72335">
        <ele>682.01</ele>
        <time>2013-04-17T11:09:51Z</time>
      </trkpt>
      <trkpt lat="44.87424" lon="5.72168">
        <ele>676.05</ele>
        <time>2013-04-17T11:10:06Z</time>
      </trkpt>
      <trkpt lat="44.87395" lon="5.71976">
        <ele>669.61</ele>
        <time>2013-04-17T11:10:21Z</time>
      </trkpt>
      <trkpt lat="44.8733" lon="5.71786">
        <ele>662.78</ele>
        <time>2013-04-17T11:10:36Z</time>
      </trkpt>
      <trkpt lat="44.8735" lon="5.71593">
        <ele>656.87</ele>
        <time>2013-04-17T11:10:51Z</time>
      </trkpt>
      <trkpt lat="44.87326" lon="5.71389">
        <ele>648.84</ele>
        <time>2013-04-17T11:11:06Z</time>
      </trkpt>
      <trkpt lat="44.87385" lon="5.71203">
        <ele>646.69</ele>
        <time>2013-04-17T11:11:21Z</time>
      </trkpt>
      <trkpt lat="44.87415" lon="5.71053">
        <ele>649.23</ele>
        <time>2013-04-17T11:11:36Z</time>
      </trkpt>
      <trkpt lat="44.87484" lon="5.70989">
        <ele>652.16</ele>
        <time>2013-04-17T11:11:51Z</time>
      </trkpt>
      <trkpt lat="44.87543" lon="5.70956">
        <ele>655.64</ele>
        <time>2013-04-17T11:12:06Z</time>
      </trkpt>
      <trkpt lat="44.87593" lon="5.7093">
        <ele>658.22</ele>
        <time>2013-04-17T11:12:21Z</time>
      </trkpt>
      <trkpt lat="44.87639" lon="5.70892">
        <ele>660.73</ele>
        <time>2013-04-17T11:12:36Z</time>
      </trkpt>
      <trkpt lat="44.87673" lon="5.70838">
        <ele>664</ele>
        <time>2013-04-17T11:12:51Z</time>
      </trkpt>
      <trkpt lat="44.87684" lon="5.70766">
        <ele>667.33</ele>
        <time>2013-04-17T11:13:06Z</time>
      </trkpt>
      <trkpt lat="44.87694" lon="5.70696">
        <ele>670.63</ele>
        <time>2013-04-17T11:13:21Z</time>
      </trkpt>
      <trkpt lat="44.87718" lon="5.70631">
        <ele>673.56</ele>
        <time>2013-04-17T11:13:36Z</time>
      </trkpt>
      <trkpt lat="44.87699" lon="5.70559">
        <ele>675.96</ele>
        <time>2013-04-17T11:13:51Z</time>
      </trkpt>
      <trkpt lat="44.87714" lon="5.7049">
        <ele>678.77</ele>
        <time>2013-04-17T11:14:06Z</time>
      </trkpt>
      <trkpt lat="44.87764" lon="5.70457">
        <ele>680.57</ele>
        <time>2013-04-17T11:14:21Z</time>
      </trkpt>
      <trkpt lat="44.87817" lon="5.70436">
        <ele>682.38</ele>
        <time>2013-04-17T11:14:36Z</time>
      </trkpt>
      <trkpt lat="44.87876" lon="5.70416">
        <ele>684.17</ele>
        <time>2013-04-17T11:14:51Z</time>
      </trkpt>
      <trkpt lat="44.87931" lon="5.70396">
        <ele>686.33</ele>
        <time>2013-04-17T11:15:06Z</time>
      </trkpt>
      <trkpt lat="44.87988" lon="5.70379">
        <ele>688.55</ele>
        <time>2013-04-17T11:15:21Z</time>
      </trkpt>
      <trkpt lat="44.88045" lon="5.70391">
        <ele>691.72</ele>
        <time>2013-04-17T11:15:36Z</time>
      </trkpt>
      <trkpt lat="44.88102" lon="5.70422">
        <ele>694</ele>
        <time>2013-04-17T11:15:51Z</time>
      </trkpt>
      <trkpt lat="44.88165" lon="5.7046">
        <ele>695.18</ele>
        <time>2013-04-17T11:16:06Z</time>
      </trkpt>
      <trkpt lat="44.88239" lon="5.70453">
        <ele>695.87</ele>
        <time>2013-04-17T11:16:21Z</time>
      </trkpt>
      <trkpt lat="44.88292" lon="5.70398">
        <ele>697.63</ele>
        <time>2013-04-17T11:16:36Z</time>
      </trkpt>
      <trkpt lat="44.88288" lon="5.70325">
        <ele>701.2</ele>
        <time>2013-04-17T11:16:51Z</time>
      </trkpt>
      <trkpt lat="44.88311" lon="5.70267">
        <ele>704.09</ele>
        <time>2013-04-17T11:17:06Z</time>
      </trkpt>
      <trkpt lat="44.88357" lon="5.70227">
        <ele>705.74</ele>
        <time>2013-04-17T11:17:21Z</time>
      </trkpt>
      <trkpt lat="44.8841" lon="5.70199">
        <ele>708.48</ele>
        <time>2013-04-17T11:17:36Z</time>
      </trkpt>
      <trkpt lat="44.88461" lon="5.70136">
        <ele>708.38</ele>
        <time>2013-04-17T11:17:51Z</time>
      </trkpt>
      <trkpt lat="44.88494" lon="5.70054">
        <ele>711.49</ele>
        <time>2013-04-17T11:18:06Z</time>
      </trkpt>
      <trkpt lat="44.88534" lon="5.70002">
        <ele>714.71</ele>
        <time>2013-04-17T11:18:21Z</time>
      </trkpt>
      <trkpt lat="44.88591" lon="5.69997">
        <ele>717.44</ele>
        <time>2013-04-17T11:18:36Z</time>
      </trkpt>
      <trkpt lat="44.88645" lon="5.69999">
        <ele>720.64</ele>
        <time>2013-04-17T11:18:51Z</time>
      </trkpt>
      <trkpt lat="44.88702" lon="5.70003">
        <ele>723.59</ele>
        <time>2013-04-17T11:19:06Z</time>
      </trkpt>
      <trkpt lat="44.8876" lon="5.69998">
        <ele>726.02</ele>
        <time>2013-04-17T11:19:21Z</time>
      </trkpt>
      <trkpt lat="44.88827" lon="5.69956">
        <ele>726.1</ele>
        <time>2013-04-17T11:19:36Z</time>
      </trkpt>
      <trkpt lat="44.88895" lon="5.69879">
        <ele>725.41</ele>
        <time>2013-04-17T11:19:51Z</time>
      </trkpt>
      <trkpt lat="44.88941" lon="5.69753">
        <ele>723.64</ele>
        <time>2013-04-17T11:20:06Z</time>
      </trkpt>
      <trkpt lat="44.89003" lon="5.69633">
        <ele>721.4</ele>
        <time>2013-04-17T11:20:21Z</time>
      </trkpt>
      <trkpt lat="44.89143" lon="5.69642">
        <ele>712.25</ele>
        <time>2013-04-17T11:20:36Z</time>
      </trkpt>
      <trkpt lat="44.8929" lon="5.69633">
        <ele>705.24</ele>
        <time>2013-04-17T11:20:51Z</time>
      </trkpt>
      <trkpt lat="44.89442" lon="5.69586">
        <ele>698.71</ele>
        <time>2013-04-17T11:21:06Z</time>
      </trkpt>
      <trkpt lat="44.89584" lon="5.69547">
        <ele>693.96</ele>
        <time>2013-04-17T11:21:21Z</time>
      </trkpt>
      <trkpt lat="44.89725" lon="5.69451">
        <ele>687.76</ele>
        <time>2013-04-17T11:21:36Z</time>
      </trkpt>
      <trkpt lat="44.89846" lon="5.69331">
        <ele>681.17</ele>
        <time>2013-04-17T11:21:51Z</time>
      </trkpt>
      <trkpt lat="44.89992" lon="5.69272">
        <ele>674.23</ele>
        <time>2013-04-17T11:22:06Z</time>
      </trkpt>
      <trkpt lat="44.90124" lon="5.69244">
        <ele>672.62</ele>
        <time>2013-04-17T11:22:21Z</time>
      </trkpt>
      <trkpt lat="44.90255" lon="5.69186">
        <ele>668.58</ele>
        <time>2013-04-17T11:22:36Z</time>
      </trkpt>
      <trkpt lat="44.9039" lon="5.69122">
        <ele>664.12</ele>
        <time>2013-04-17T11:22:51Z</time>
      </trkpt>
      <trkpt lat="44.90532" lon="5.69094">
        <ele>659.58</ele>
        <time>2013-04-17T11:23:06Z</time>
      </trkpt>
      <trkpt lat="44.90687" lon="5.69096">
        <ele>653.66</ele>
        <time>2013-04-17T11:23:21Z</time>
      </trkpt>
      <trkpt lat="44.90857" lon="5.69082">
        <ele>647.07</ele>
        <time>2013-04-17T11:23:36Z</time>
      </trkpt>
      <trkpt lat="44.91024" lon="5.69006">
        <ele>640.56</ele>
        <time>2013-04-17T11:23:51Z</time>
      </trkpt>
      <trkpt lat="44.91181" lon="5.68933">
        <ele>636.03</ele>
        <time>2013-04-17T11:24:06Z</time>
      </trkpt>
      <trkpt lat="44.9133" lon="5.68891">
        <ele>632.06</ele>
        <time>2013-04-17T11:24:21Z</time>
      </trkpt>
      <trkpt lat="44.91455" lon="5.68896">
        <ele>635.51</ele>
        <time>2013-04-17T11:24:36Z</time>
      </trkpt>
      <trkpt lat="44.91545" lon="5.68887">
        <ele>639.48</ele>
        <time>2013-04-17T11:24:51Z</time>
      </trkpt>
      <trkpt lat="44.91619" lon="5.6888">
        <ele>642.59</ele>
        <time>2013-04-17T11:25:06Z</time>
      </trkpt>
      <trkpt lat="44.91686" lon="5.68874">
        <ele>645.8</ele>
        <time>2013-04-17T11:25:21Z</time>
      </trkpt>
      <trkpt lat="44.91751" lon="5.68878">
        <ele>648.12</ele>
        <time>2013-04-17T11:25:36Z</time>
      </trkpt>
      <trkpt lat="44.91813" lon="5.68905">
        <ele>652.02</ele>
        <time>2013-04-17T11:25:51Z</time>
      </trkpt>
      <trkpt lat="44.9188" lon="5.68918">
        <ele>654.92</ele>
        <time>2013-04-17T11:26:06Z</time>
      </trkpt>
      <trkpt lat="44.91944" lon="5.68943">
        <ele>656.26</ele>
        <time>2013-04-17T11:26:21Z</time>
      </trkpt>
      <trkpt lat="44.92007" lon="5.68974">
        <ele>656.85</ele>
        <time>2013-04-17T11:26:36Z</time>
      </trkpt>
      <trkpt lat="44.92079" lon="5.6896">
        <ele>657.63</ele>
        <time>2013-04-17T11:26:51Z</time>
      </trkpt>
      <trkpt lat="44.92149" lon="5.68914">
        <ele>658.98</ele>
        <time>2013-04-17T11:27:06Z</time>
      </trkpt>
      <trkpt lat="44.92237" lon="5.68929">
        <ele>654.72</ele>
        <time>2013-04-17T11:27:21Z</time>
      </trkpt>
      <trkpt lat="44.92322" lon="5.69011">
        <ele>653.66</ele>
        <time>2013-04-17T11:27:36Z</time>
      </trkpt>
      <trkpt lat="44.92402" lon="5.69054">
        <ele>656.96</ele>
        <time>2013-04-17T11:27:51Z</time>
      </trkpt>
      <trkpt lat="44.92466" lon="5.69081">
        <ele>660.69</ele>
        <time>2013-04-17T11:28:06Z</time>
      </trkpt>
      <trkpt lat="44.92521" lon="5.69099">
        <ele>661.6</ele>
        <time>2013-04-17T11:28:21Z</time>
      </trkpt>
      <trkpt lat="44.92581" lon="5.69109">
        <ele>664.76</ele>
        <time>2013-04-17T11:28:36Z</time>
      </trkpt>
      <trkpt lat="44.92635" lon="5.69139">
        <ele>666.79</ele>
        <time>2013-04-17T11:28:51Z</time>
      </trkpt>
      <trkpt lat="44.9269" lon="5.69159">
        <ele>668.43</ele>
        <time>2013-04-17T11:29:06Z</time>
      </trkpt>
      <trkpt lat="44.92748" lon="5.69162">
        <ele>672.38</ele>
        <time>2013-04-17T11:29:21Z</time>
      </trkpt>
      <trkpt lat="44.92806" lon="5.6916">
        <ele>676.8</ele>
        <time>2013-04-17T11:29:36Z</time>
      </trkpt>
      <trkpt lat="44.92857" lon="5.6919">
        <ele>680.86</ele>
        <time>2013-04-17T11:29:51Z</time>
      </trkpt>
      <trkpt lat="44.92906" lon="5.69177">
        <ele>682.32</ele>
        <time>2013-04-17T11:30:06Z</time>
      </trkpt>
      <trkpt lat="44.92957" lon="5.69157">
        <ele>685.09</ele>
        <time>2013-04-17T11:30:21Z</time>
      </trkpt>
      <trkpt lat="44.93013" lon="5.69142">
        <ele>687.65</ele>
        <time>2013-04-17T11:30:36Z</time>
      </trkpt>
      <trkpt lat="44.9307" lon="5.69121">
        <ele>690.92</ele>
        <time>2013-04-17T11:30:51Z</time>
      </trkpt>
      <trkpt lat="44.93128" lon="5.69124">
        <ele>692.22</ele>
        <time>2013-04-17T11:31:06Z</time>
      </trkpt>
      <trkpt lat="44.93186" lon="5.69131">
        <ele>694.91</ele>
        <time>2013-04-17T11:31:21Z</time>
      </trkpt>
      <trkpt lat="44.93243" lon="5.69111">
        <ele>697.24</ele>
        <time>2013-04-17T11:31:36Z</time>
      </trkpt>
      <trkpt lat="44.93292" lon="5.69137">
        <ele>700.83</ele>
        <time>2013-04-17T11:31:51Z</time>
      </trkpt>
      <trkpt lat="44.93339" lon="5.69116">
        <ele>703.09</ele>
        <time>2013-04-17T11:32:06Z</time>
      </trkpt>
      <trkpt lat="44.93398" lon="5.69121">
        <ele>704.28</ele>
        <time>2013-04-17T11:32:21Z</time>
      </trkpt>
      <trkpt lat="44.93452" lon="5.69148">
        <ele>706.66</ele>
        <time>2013-04-17T11:32:36Z</time>
      </trkpt>
      <trkpt lat="44.93506" lon="5.6917">
        <ele>710.1</ele>
        <time>2013-04-17T11:32:51Z</time>
      </trkpt>
      <trkpt lat="44.93562" lon="5.6919">
        <ele>713.57</ele>
        <time>2013-04-17T11:33:06Z</time>
      </trkpt>
      <trkpt lat="44.9362" lon="5.69205">
        <ele>719.62</ele>
        <time>2013-04-17T11:33:21Z</time>
      </trkpt>
      <trkpt lat="44.9367" lon="5.69246">
        <ele>721.63</ele>
        <time>2013-04-17T11:33:36Z</time>
      </trkpt>
      <trkpt lat="44.93702" lon="5.69306">
        <ele>717.92</ele>
        <time>2013-04-17T11:33:51Z</time>
      </trkpt>
      <trkpt lat="44.93764" lon="5.69276">
        <ele>726.49</ele>
        <time>2013-04-17T11:34:06Z</time>
      </trkpt>
      <trkpt lat="44.93821" lon="5.69296">
        <ele>728.18</ele>
        <time>2013-04-17T11:34:21Z</time>
      </trkpt>
      <trkpt lat="44.93869" lon="5.6933">
        <ele>727.4</ele>
        <time>2013-04-17T11:34:36Z</time>
      </trkpt>
      <trkpt lat="44.9393" lon="5.69345">
        <ele>737.93</ele>
        <time>2013-04-17T11:34:51Z</time>
      </trkpt>
      <trkpt lat="44.93989" lon="5.69364">
        <ele>747.73</ele>
        <time>2013-04-17T11:35:06Z</time>
      </trkpt>
      <trkpt lat="44.94044" lon="5.69387">
        <ele>748.98</ele>
        <time>2013-04-17T11:35:21Z</time>
      </trkpt>
      <trkpt lat="44.941" lon="5.69372">
        <ele>750.73</ele>
        <time>2013-04-17T11:35:36Z</time>
      </trkpt>
      <trkpt lat="44.94158" lon="5.69386">
        <ele>753.76</ele>
        <time>2013-04-17T11:35:51Z</time>
      </trkpt>
      <trkpt lat="44.94213" lon="5.69411">
        <ele>753.45</ele>
        <time>2013-04-17T11:36:06Z</time>
      </trkpt>
      <trkpt lat="44.94265" lon="5.69446">
        <ele>752.77</ele>
        <time>2013-04-17T11:36:21Z</time>
      </trkpt>
      <trkpt lat="44.94319" lon="5.69471">
        <ele>758.65</ele>
        <time>2013-04-17T11:36:36Z</time>
      </trkpt>
      <trkpt lat="44.94365" lon="5.69413">
        <ele>761.44</ele>
        <time>2013-04-17T11:36:51Z</time>
      </trkpt>
      <trkpt lat="44.94419" lon="5.69416">
        <ele>759.2</ele>
        <time>2013-04-17T11:37:06Z</time>
      </trkpt>
      <trkpt lat="44.94469" lon="5.69373">
        <ele>759.44</ele>
        <time>2013-04-17T11:37:21Z</time>
      </trkpt>
      <trkpt lat="44.94529" lon="5.69364">
        <ele>762.36</ele>
        <time>2013-04-17T11:37:36Z</time>
      </trkpt>
      <trkpt lat="44.94588" lon="5.69365">
        <ele>767.34</ele>
        <time>2013-04-17T11:37:51Z</time>
      </trkpt>
      <trkpt lat="44.94644" lon="5.69392">
        <ele>768.86</ele>
        <time>2013-04-17T11:38:06Z</time>
      </trkpt>
      <trkpt lat="44.94702" lon="5.69414">
        <ele>770.09</ele>
        <time>2013-04-17T11:38:21Z</time>
      </trkpt>
      <trkpt lat="44.94765" lon="5.69397">
        <ele>775.99</ele>
        <time>2013-04-17T11:38:36Z</time>
      </trkpt>
      <trkpt lat="44.94834" lon="5.69401">
        <ele>775.16</ele>
        <time>2013-04-17T11:38:51Z</time>
      </trkpt>
      <trkpt lat="44.94898" lon="5.69463">
        <ele>771.89</ele>
        <time>2013-04-17T11:39:06Z</time>
      </trkpt>
      <trkpt lat="44.94876" lon="5.69587">
        <ele>768.74</ele>
        <time>2013-04-17T11:39:21Z</time>
      </trkpt>
      <trkpt lat="44.94867" lon="5.69724">
        <ele>768.78</ele>
        <time>2013-04-17T11:39:36Z</time>
      </trkpt>
      <trkpt lat="44.94865" lon="5.69859">
        <ele>771.34</ele>
        <time>2013-04-17T11:39:51Z</time>
      </trkpt>
      <trkpt lat="44.94911" lon="5.69992">
        <ele>768.26</ele>
        <time>2013-04-17T11:40:06Z</time>
      </trkpt>
      <trkpt lat="44.94944" lon="5.70135">
        <ele>756.68</ele>
        <time>2013-04-17T11:40:21Z</time>
      </trkpt>
      <trkpt lat="44.94973" lon="5.70273">
        <ele>753.49</ele>
        <time>2013-04-17T11:40:36Z</time>
      </trkpt>
      <trkpt lat="44.94995" lon="5.70431">
        <ele>751.38</ele>
        <time>2013-04-17T11:40:51Z</time>
      </trkpt>
      <trkpt lat="44.94998" lon="5.70573">
        <ele>747.39</ele>
        <time>2013-04-17T11:41:06Z</time>
      </trkpt>
      <trkpt lat="44.94941" lon="5.70717">
        <ele>740.08</ele>
        <time>2013-04-17T11:41:21Z</time>
      </trkpt>
      <trkpt lat="44.94852" lon="5.70819">
        <ele>736.7</ele>
        <time>2013-04-17T11:41:36Z</time>
      </trkpt>
      <trkpt lat="44.94757" lon="5.70907">
        <ele>735.68</ele>
        <time>2013-04-17T11:41:51Z</time>
      </trkpt>
      <trkpt lat="44.947" lon="5.71037">
        <ele>737.94</ele>
        <time>2013-04-17T11:42:06Z</time>
      </trkpt>
      <trkpt lat="44.94676" lon="5.71156">
        <ele>740.83</ele>
        <time>2013-04-17T11:42:21Z</time>
      </trkpt>
      <trkpt lat="44.94617" lon="5.71301">
        <ele>736.45</ele>
        <time>2013-04-17T11:42:36Z</time>
      </trkpt>
      <trkpt lat="44.94567" lon="5.71456">
        <ele>727.76</ele>
        <time>2013-04-17T11:42:51Z</time>
      </trkpt>
      <trkpt lat="44.9459" lon="5.71652">
        <ele>715.41</ele>
        <time>2013-04-17T11:43:06Z</time>
      </trkpt>
      <trkpt lat="44.94533" lon="5.7181">
        <ele>709.81</ele>
        <time>2013-04-17T11:43:21Z</time>
      </trkpt>
      <trkpt lat="44.94619" lon="5.71789">
        <ele>710.82</ele>
        <time>2013-04-17T11:43:36Z</time>
      </trkpt>
      <trkpt lat="44.94651" lon="5.71836">
        <ele>715.51</ele>
        <time>2013-04-17T11:48:07Z</time>
      </trkpt>
      <trkpt lat="44.94713" lon="5.71891">
        <ele>711.92</ele>
        <time>2013-04-17T11:48:21Z</time>
      </trkpt>
      <trkpt lat="44.94808" lon="5.71857">
        <ele>704.6</ele>
        <time>2013-04-17T11:48:36Z</time>
      </trkpt>
      <trkpt lat="44.94927" lon="5.71801">
        <ele>699.01</ele>
        <time>2013-04-17T11:48:51Z</time>
      </trkpt>
      <trkpt lat="44.94999" lon="5.71732">
        <ele>697.71</ele>
        <time>2013-04-17T11:49:06Z</time>
      </trkpt>
      <trkpt lat="44.95107" lon="5.71725">
        <ele>690.65</ele>
        <time>2013-04-17T11:49:21Z</time>
      </trkpt>
      <trkpt lat="44.95169" lon="5.71548">
        <ele>678.75</ele>
        <time>2013-04-17T11:49:36Z</time>
      </trkpt>
      <trkpt lat="44.95299" lon="5.71457">
        <ele>667.57</ele>
        <time>2013-04-17T11:49:51Z</time>
      </trkpt>
      <trkpt lat="44.95457" lon="5.71491">
        <ele>647.79</ele>
        <time>2013-04-17T11:50:06Z</time>
      </trkpt>
      <trkpt lat="44.95515" lon="5.71672">
        <ele>628.49</ele>
        <time>2013-04-17T11:50:21Z</time>
      </trkpt>
      <trkpt lat="44.95566" lon="5.71729">
        <ele>620.12</ele>
        <time>2013-04-17T11:50:36Z</time>
      </trkpt>
      <trkpt lat="44.95612" lon="5.71657">
        <ele>632.29</ele>
        <time>2013-04-17T11:50:51Z</time>
      </trkpt>
      <trkpt lat="44.95633" lon="5.71597">
        <ele>639.52</ele>
        <time>2013-04-17T11:51:06Z</time>
      </trkpt>
      <trkpt lat="44.95635" lon="5.71536">
        <ele>647.66</ele>
        <time>2013-04-17T11:51:21Z</time>
      </trkpt>
      <trkpt lat="44.95634" lon="5.71478">
        <ele>653.79</ele>
        <time>2013-04-17T11:51:36Z</time>
      </trkpt>
      <trkpt lat="44.95635" lon="5.71426">
        <ele>656.34</ele>
        <time>2013-04-17T11:51:51Z</time>
      </trkpt>
      <trkpt lat="44.95646" lon="5.71378">
        <ele>659.88</ele>
        <time>2013-04-17T11:52:06Z</time>
      </trkpt>
      <trkpt lat="44.95638" lon="5.71325">
        <ele>664.78</ele>
        <time>2013-04-17T11:52:21Z</time>
      </trkpt>
      <trkpt lat="44.9562" lon="5.71279">
        <ele>664.09</ele>
        <time>2013-04-17T11:52:36Z</time>
      </trkpt>
      <trkpt lat="44.95602" lon="5.71227">
        <ele>665.22</ele>
        <time>2013-04-17T11:52:51Z</time>
      </trkpt>
      <trkpt lat="44.95583" lon="5.71182">
        <ele>667.11</ele>
        <time>2013-04-17T11:53:06Z</time>
      </trkpt>
      <trkpt lat="44.95607" lon="5.7119">
        <ele>668.45</ele>
        <time>2013-04-17T11:53:21Z</time>
      </trkpt>
      <trkpt lat="44.95634" lon="5.71222">
        <ele>669.61</ele>
        <time>2013-04-17T11:53:36Z</time>
      </trkpt>
      <trkpt lat="44.95651" lon="5.71262">
        <ele>672.73</ele>
        <time>2013-04-17T11:53:51Z</time>
      </trkpt>
      <trkpt lat="44.95669" lon="5.71304">
        <ele>675.5</ele>
        <time>2013-04-17T11:54:06Z</time>
      </trkpt>
      <trkpt lat="44.95682" lon="5.71355">
        <ele>678.59</ele>
        <time>2013-04-17T11:54:21Z</time>
      </trkpt>
      <trkpt lat="44.95699" lon="5.71408">
        <ele>680.18</ele>
        <time>2013-04-17T11:54:36Z</time>
      </trkpt>
      <trkpt lat="44.95704" lon="5.71382">
        <ele>683.92</ele>
        <time>2013-04-17T11:54:51Z</time>
      </trkpt>
      <trkpt lat="44.95696" lon="5.71337">
        <ele>688.75</ele>
        <time>2013-04-17T11:55:06Z</time>
      </trkpt>
      <trkpt lat="44.95692" lon="5.71285">
        <ele>692.33</ele>
        <time>2013-04-17T11:55:21Z</time>
      </trkpt>
      <trkpt lat="44.95694" lon="5.71237">
        <ele>694.87</ele>
        <time>2013-04-17T11:55:36Z</time>
      </trkpt>
      <trkpt lat="44.95705" lon="5.71194">
        <ele>697.44</ele>
        <time>2013-04-17T11:55:51Z</time>
      </trkpt>
      <trkpt lat="44.95712" lon="5.7115">
        <ele>700.17</ele>
        <time>2013-04-17T11:56:06Z</time>
      </trkpt>
      <trkpt lat="44.95707" lon="5.71107">
        <ele>703.47</ele>
        <time>2013-04-17T11:56:21Z</time>
      </trkpt>
      <trkpt lat="44.95701" lon="5.71052">
        <ele>705.57</ele>
        <time>2013-04-17T11:56:36Z</time>
      </trkpt>
      <trkpt lat="44.95692" lon="5.71">
        <ele>708.16</ele>
        <time>2013-04-17T11:56:51Z</time>
      </trkpt>
      <trkpt lat="44.9569" lon="5.7095">
        <ele>711.02</ele>
        <time>2013-04-17T11:57:06Z</time>
      </trkpt>
      <trkpt lat="44.95701" lon="5.70945">
        <ele>713.55</ele>
        <time>2013-04-17T11:57:21Z</time>
      </trkpt>
      <trkpt lat="44.95718" lon="5.7099">
        <ele>715.64</ele>
        <time>2013-04-17T11:57:36Z</time>
      </trkpt>
      <trkpt lat="44.95738" lon="5.71027">
        <ele>718.43</ele>
        <time>2013-04-17T11:57:51Z</time>
      </trkpt>
      <trkpt lat="44.95766" lon="5.71053">
        <ele>720.44</ele>
        <time>2013-04-17T11:58:06Z</time>
      </trkpt>
      <trkpt lat="44.95789" lon="5.71091">
        <ele>722.82</ele>
        <time>2013-04-17T11:58:21Z</time>
      </trkpt>
      <trkpt lat="44.95802" lon="5.71134">
        <ele>725.73</ele>
        <time>2013-04-17T11:58:36Z</time>
      </trkpt>
      <trkpt lat="44.95804" lon="5.71181">
        <ele>728.53</ele>
        <time>2013-04-17T11:58:51Z</time>
      </trkpt>
      <trkpt lat="44.95804" lon="5.71229">
        <ele>731.03</ele>
        <time>2013-04-17T11:59:06Z</time>
      </trkpt>
      <trkpt lat="44.9581" lon="5.71274">
        <ele>734.48</ele>
        <time>2013-04-17T11:59:21Z</time>
      </trkpt>
      <trkpt lat="44.95829" lon="5.71312">
        <ele>737.87</ele>
        <time>2013-04-17T11:59:36Z</time>
      </trkpt>
      <trkpt lat="44.95855" lon="5.71341">
        <ele>740.63</ele>
        <time>2013-04-17T11:59:51Z</time>
      </trkpt>
      <trkpt lat="44.9588" lon="5.71371">
        <ele>742.52</ele>
        <time>2013-04-17T12:00:06Z</time>
      </trkpt>
      <trkpt lat="44.959" lon="5.71405">
        <ele>744.34</ele>
        <time>2013-04-17T12:00:21Z</time>
      </trkpt>
      <trkpt lat="44.95918" lon="5.71443">
        <ele>747.15</ele>
        <time>2013-04-17T12:00:36Z</time>
      </trkpt>
      <trkpt lat="44.95934" lon="5.71486">
        <ele>750.17</ele>
        <time>2013-04-17T12:00:51Z</time>
      </trkpt>
      <trkpt lat="44.95943" lon="5.7153">
        <ele>753.19</ele>
        <time>2013-04-17T12:01:06Z</time>
      </trkpt>
      <trkpt lat="44.95933" lon="5.71573">
        <ele>757.09</ele>
        <time>2013-04-17T12:01:21Z</time>
      </trkpt>
      <trkpt lat="44.95942" lon="5.71615">
        <ele>759.94</ele>
        <time>2013-04-17T12:01:36Z</time>
      </trkpt>
      <trkpt lat="44.95974" lon="5.71631">
        <ele>763.1</ele>
        <time>2013-04-17T12:01:51Z</time>
      </trkpt>
      <trkpt lat="44.95993" lon="5.71672">
        <ele>766.5</ele>
        <time>2013-04-17T12:02:06Z</time>
      </trkpt>
      <trkpt lat="44.96011" lon="5.71713">
        <ele>768.55</ele>
        <time>2013-04-17T12:02:21Z</time>
      </trkpt>
      <trkpt lat="44.9602" lon="5.71701">
        <ele>771.43</ele>
        <time>2013-04-17T12:02:36Z</time>
      </trkpt>
      <trkpt lat="44.96006" lon="5.71656">
        <ele>774.94</ele>
        <time>2013-04-17T12:02:51Z</time>
      </trkpt>
      <trkpt lat="44.95996" lon="5.71612">
        <ele>778.07</ele>
        <time>2013-04-17T12:03:06Z</time>
      </trkpt>
      <trkpt lat="44.95988" lon="5.71569">
        <ele>781.36</ele>
        <time>2013-04-17T12:03:21Z</time>
      </trkpt>
      <trkpt lat="44.96002" lon="5.71529">
        <ele>783.11</ele>
        <time>2013-04-17T12:03:36Z</time>
      </trkpt>
      <trkpt lat="44.96024" lon="5.715">
        <ele>785.37</ele>
        <time>2013-04-17T12:03:51Z</time>
      </trkpt>
      <trkpt lat="44.96049" lon="5.71463">
        <ele>788.94</ele>
        <time>2013-04-17T12:04:06Z</time>
      </trkpt>
      <trkpt lat="44.96068" lon="5.71422">
        <ele>792.19</ele>
        <time>2013-04-17T12:04:21Z</time>
      </trkpt>
      <trkpt lat="44.96075" lon="5.71378">
        <ele>795.33</ele>
        <time>2013-04-17T12:04:36Z</time>
      </trkpt>
      <trkpt lat="44.96078" lon="5.71332">
        <ele>798.01</ele>
        <time>2013-04-17T12:04:51Z</time>
      </trkpt>
      <trkpt lat="44.96081" lon="5.71285">
        <ele>800.54</ele>
        <time>2013-04-17T12:05:06Z</time>
      </trkpt>
      <trkpt lat="44.96088" lon="5.71241">
        <ele>802.97</ele>
        <time>2013-04-17T12:05:21Z</time>
      </trkpt>
      <trkpt lat="44.96098" lon="5.71199">
        <ele>805.65</ele>
        <time>2013-04-17T12:05:36Z</time>
      </trkpt>
      <trkpt lat="44.96107" lon="5.71159">
        <ele>807.8</ele>
        <time>2013-04-17T12:05:51Z</time>
      </trkpt>
      <trkpt lat="44.96113" lon="5.71116">
        <ele>810.16</ele>
        <time>2013-04-17T12:06:06Z</time>
      </trkpt>
      <trkpt lat="44.96115" lon="5.71073">
        <ele>812.3</ele>
        <time>2013-04-17T12:06:21Z</time>
      </trkpt>
      <trkpt lat="44.96116" lon="5.7103">
        <ele>814.68</ele>
        <time>2013-04-17T12:06:36Z</time>
      </trkpt>
      <trkpt lat="44.96117" lon="5.70987">
        <ele>817.18</ele>
        <time>2013-04-17T12:06:51Z</time>
      </trkpt>
      <trkpt lat="44.96113" lon="5.70944">
        <ele>819.33</ele>
        <time>2013-04-17T12:07:06Z</time>
      </trkpt>
      <trkpt lat="44.96105" lon="5.709">
        <ele>821.79</ele>
        <time>2013-04-17T12:07:21Z</time>
      </trkpt>
      <trkpt lat="44.96099" lon="5.70858">
        <ele>824.22</ele>
        <time>2013-04-17T12:07:36Z</time>
      </trkpt>
      <trkpt lat="44.96096" lon="5.70816">
        <ele>826.48</ele>
        <time>2013-04-17T12:07:51Z</time>
      </trkpt>
      <trkpt lat="44.96095" lon="5.70773">
        <ele>828.79</ele>
        <time>2013-04-17T12:08:06Z</time>
      </trkpt>
      <trkpt lat="44.96093" lon="5.70731">
        <ele>831.14</ele>
        <time>2013-04-17T12:08:21Z</time>
      </trkpt>
      <trkpt lat="44.96093" lon="5.70687">
        <ele>833.45</ele>
        <time>2013-04-17T12:08:36Z</time>
      </trkpt>
      <trkpt lat="44.96093" lon="5.70642">
        <ele>835.92</ele>
        <time>2013-04-17T12:08:51Z</time>
      </trkpt>
      <trkpt lat="44.96096" lon="5.70598">
        <ele>838.47</ele>
        <time>2013-04-17T12:09:06Z</time>
      </trkpt>
      <trkpt lat="44.961" lon="5.70552">
        <ele>841</ele>
        <time>2013-04-17T12:09:21Z</time>
      </trkpt>
      <trkpt lat="44.96102" lon="5.70506">
        <ele>843.4</ele>
        <time>2013-04-17T12:09:36Z</time>
      </trkpt>
      <trkpt lat="44.96106" lon="5.70459">
        <ele>845.9</ele>
        <time>2013-04-17T12:09:51Z</time>
      </trkpt>
      <trkpt lat="44.96125" lon="5.70426">
        <ele>848.53</ele>
        <time>2013-04-17T12:10:06Z</time>
      </trkpt>
      <trkpt lat="44.96158" lon="5.70425">
        <ele>851.48</ele>
        <time>2013-04-17T12:10:21Z</time>
      </trkpt>
      <trkpt lat="44.96173" lon="5.70434">
        <ele>851.46</ele>
        <time>2013-04-17T12:11:50Z</time>
      </trkpt>
      <trkpt lat="44.96175" lon="5.70435">
        <ele>851.48</ele>
        <time>2013-04-17T12:11:51Z</time>
      </trkpt>
      <trkpt lat="44.96235" lon="5.70435">
        <ele>851.81</ele>
        <time>2013-04-17T12:12:06Z</time>
      </trkpt>
      <trkpt lat="44.96325" lon="5.70409">
        <ele>851.05</ele>
        <time>2013-04-17T12:12:21Z</time>
      </trkpt>
      <trkpt lat="44.9641" lon="5.70347">
        <ele>849.9</ele>
        <time>2013-04-17T12:12:36Z</time>
      </trkpt>
      <trkpt lat="44.96465" lon="5.7022">
        <ele>847.82</ele>
        <time>2013-04-17T12:12:51Z</time>
      </trkpt>
      <trkpt lat="44.96509" lon="5.70077">
        <ele>845.86</ele>
        <time>2013-04-17T12:13:06Z</time>
      </trkpt>
      <trkpt lat="44.96614" lon="5.70082">
        <ele>840.08</ele>
        <time>2013-04-17T12:13:21Z</time>
      </trkpt>
      <trkpt lat="44.96724" lon="5.7018">
        <ele>831.69</ele>
        <time>2013-04-17T12:13:36Z</time>
      </trkpt>
      <trkpt lat="44.96848" lon="5.7029">
        <ele>824.98</ele>
        <time>2013-04-17T12:13:51Z</time>
      </trkpt>
      <trkpt lat="44.96994" lon="5.70385">
        <ele>815.43</ele>
        <time>2013-04-17T12:14:06Z</time>
      </trkpt>
      <trkpt lat="44.97174" lon="5.7039">
        <ele>802.96</ele>
        <time>2013-04-17T12:14:21Z</time>
      </trkpt>
      <trkpt lat="44.97352" lon="5.70394">
        <ele>791.1</ele>
        <time>2013-04-17T12:14:36Z</time>
      </trkpt>
      <trkpt lat="44.97531" lon="5.70398">
        <ele>779.19</ele>
        <time>2013-04-17T12:14:51Z</time>
      </trkpt>
      <trkpt lat="44.97694" lon="5.7039">
        <ele>769.46</ele>
        <time>2013-04-17T12:15:06Z</time>
      </trkpt>
      <trkpt lat="44.9787" lon="5.70377">
        <ele>759.43</ele>
        <time>2013-04-17T12:15:21Z</time>
      </trkpt>
      <trkpt lat="44.9804" lon="5.70354">
        <ele>750.37</ele>
        <time>2013-04-17T12:15:36Z</time>
      </trkpt>
      <trkpt lat="44.98189" lon="5.70307">
        <ele>742.94</ele>
        <time>2013-04-17T12:15:51Z</time>
      </trkpt>
      <trkpt lat="44.98353" lon="5.70273">
        <ele>731.12</ele>
        <time>2013-04-17T12:16:06Z</time>
      </trkpt>
      <trkpt lat="44.98514" lon="5.7017">
        <ele>715.62</ele>
        <time>2013-04-17T12:16:21Z</time>
      </trkpt>
      <trkpt lat="44.98662" lon="5.70043">
        <ele>701.49</ele>
        <time>2013-04-17T12:16:36Z</time>
      </trkpt>
      <trkpt lat="44.98776" lon="5.69968">
        <ele>689.84</ele>
        <time>2013-04-17T12:16:51Z</time>
      </trkpt>
      <trkpt lat="44.98903" lon="5.69855">
        <ele>678.2</ele>
        <time>2013-04-17T12:17:06Z</time>
      </trkpt>
      <trkpt lat="44.99005" lon="5.69964">
        <ele>667.22</ele>
        <time>2013-04-17T12:17:21Z</time>
      </trkpt>
      <trkpt lat="44.99129" lon="5.69824">
        <ele>653.59</ele>
        <time>2013-04-17T12:17:36Z</time>
      </trkpt>
      <trkpt lat="44.99275" lon="5.69749">
        <ele>640.13</ele>
        <time>2013-04-17T12:17:51Z</time>
      </trkpt>
      <trkpt lat="44.99467" lon="5.69766">
        <ele>624.01</ele>
        <time>2013-04-17T12:18:06Z</time>
      </trkpt>
      <trkpt lat="44.99659" lon="5.69814">
        <ele>606.34</ele>
        <time>2013-04-17T12:18:21Z</time>
      </trkpt>
      <trkpt lat="44.99814" lon="5.69924">
        <ele>591.65</ele>
        <time>2013-04-17T12:18:36Z</time>
      </trkpt>
      <trkpt lat="44.99959" lon="5.69943">
        <ele>581.2</ele>
        <time>2013-04-17T12:18:51Z</time>
      </trkpt>
      <trkpt lat="45.00103" lon="5.69925">
        <ele>572.1</ele>
        <time>2013-04-17T12:19:06Z</time>
      </trkpt>
      <trkpt lat="45.00273" lon="5.69962">
        <ele>560.08</ele>
        <time>2013-04-17T12:19:21Z</time>
      </trkpt>
      <trkpt lat="45.00367" lon="5.70147">
        <ele>548.44</ele>
        <time>2013-04-17T12:19:36Z</time>
      </trkpt>
      <trkpt lat="45.00502" lon="5.70103">
        <ele>544.89</ele>
        <time>2013-04-17T12:19:51Z</time>
      </trkpt>
      <trkpt lat="45.00645" lon="5.70083">
        <ele>537.06</ele>
        <time>2013-04-17T12:20:06Z</time>
      </trkpt>
      <trkpt lat="45.00808" lon="5.70043">
        <ele>525.89</ele>
        <time>2013-04-17T12:20:21Z</time>
      </trkpt>
      <trkpt lat="45.00974" lon="5.70028">
        <ele>515.86</ele>
        <time>2013-04-17T12:20:36Z</time>
      </trkpt>
      <trkpt lat="45.01114" lon="5.70118">
        <ele>505.2</ele>
        <time>2013-04-17T12:20:51Z</time>
      </trkpt>
      <trkpt lat="45.01242" lon="5.70224">
        <ele>498.62</ele>
        <time>2013-04-17T12:21:06Z</time>
      </trkpt>
      <trkpt lat="45.01374" lon="5.70202">
        <ele>491.7</ele>
        <time>2013-04-17T12:21:21Z</time>
      </trkpt>
      <trkpt lat="45.01438" lon="5.70363">
        <ele>487.1</ele>
        <time>2013-04-17T12:21:36Z</time>
      </trkpt>
      <trkpt lat="45.01551" lon="5.70438">
        <ele>485.17</ele>
        <time>2013-04-17T12:21:51Z</time>
      </trkpt>
      <trkpt lat="45.01675" lon="5.70392">
        <ele>482.79</ele>
        <time>2013-04-17T12:22:06Z</time>
      </trkpt>
      <trkpt lat="45.01798" lon="5.70447">
        <ele>479.84</ele>
        <time>2013-04-17T12:22:21Z</time>
      </trkpt>
      <trkpt lat="45.01911" lon="5.70546">
        <ele>475.6</ele>
        <time>2013-04-17T12:22:36Z</time>
      </trkpt>
      <trkpt lat="45.02043" lon="5.70563">
        <ele>471.27</ele>
        <time>2013-04-17T12:22:51Z</time>
      </trkpt>
      <trkpt lat="45.02173" lon="5.70571">
        <ele>466.13</ele>
        <time>2013-04-17T12:23:06Z</time>
      </trkpt>
      <trkpt lat="45.02327" lon="5.70627">
        <ele>455.77</ele>
        <time>2013-04-17T12:23:21Z</time>
      </trkpt>
      <trkpt lat="45.02479" lon="5.7066">
        <ele>449.84</ele>
        <time>2013-04-17T12:23:36Z</time>
      </trkpt>
      <trkpt lat="45.02624" lon="5.70687">
        <ele>443.8</ele>
        <time>2013-04-17T12:23:51Z</time>
      </trkpt>
      <trkpt lat="45.02725" lon="5.70596">
        <ele>442.87</ele>
        <time>2013-04-17T12:24:06Z</time>
      </trkpt>
      <trkpt lat="45.02819" lon="5.70604">
        <ele>443.79</ele>
        <time>2013-04-17T12:24:21Z</time>
      </trkpt>
      <trkpt lat="45.02925" lon="5.70579">
        <ele>440.99</ele>
        <time>2013-04-17T12:24:36Z</time>
      </trkpt>
      <trkpt lat="45.03042" lon="5.7058">
        <ele>434.37</ele>
        <time>2013-04-17T12:24:51Z</time>
      </trkpt>
      <trkpt lat="45.03144" lon="5.70463">
        <ele>426.03</ele>
        <time>2013-04-17T12:25:06Z</time>
      </trkpt>
      <trkpt lat="45.03284" lon="5.70507">
        <ele>417.03</ele>
        <time>2013-04-17T12:25:21Z</time>
      </trkpt>
      <trkpt lat="45.03437" lon="5.7052">
        <ele>408.64</ele>
        <time>2013-04-17T12:25:36Z</time>
      </trkpt>
      <trkpt lat="45.03552" lon="5.70394">
        <ele>403.42</ele>
        <time>2013-04-17T12:25:51Z</time>
      </trkpt>
      <trkpt lat="45.03616" lon="5.70269">
        <ele>396.61</ele>
        <time>2013-04-17T12:26:06Z</time>
      </trkpt>
      <trkpt lat="45.03711" lon="5.70328">
        <ele>389.93</ele>
        <time>2013-04-17T12:26:21Z</time>
      </trkpt>
      <trkpt lat="45.03817" lon="5.70408">
        <ele>388.01</ele>
        <time>2013-04-17T12:26:36Z</time>
      </trkpt>
      <trkpt lat="45.0381" lon="5.70571">
        <ele>383.47</ele>
        <time>2013-04-17T12:26:51Z</time>
      </trkpt>
      <trkpt lat="45.03898" lon="5.70571">
        <ele>379.79</ele>
        <time>2013-04-17T12:27:06Z</time>
      </trkpt>
      <trkpt lat="45.03986" lon="5.70568">
        <ele>378.8</ele>
        <time>2013-04-17T12:27:21Z</time>
      </trkpt>
      <trkpt lat="45.04074" lon="5.70598">
        <ele>377.7</ele>
        <time>2013-04-17T12:27:36Z</time>
      </trkpt>
      <trkpt lat="45.04158" lon="5.70648">
        <ele>376.51</ele>
        <time>2013-04-17T12:27:51Z</time>
      </trkpt>
      <trkpt lat="45.0424" lon="5.70721">
        <ele>375.27</ele>
        <time>2013-04-17T12:28:06Z</time>
      </trkpt>
      <trkpt lat="45.04322" lon="5.70782">
        <ele>375.2</ele>
        <time>2013-04-17T12:28:21Z</time>
      </trkpt>
      <trkpt lat="45.04363" lon="5.70867">
        <ele>375.07</ele>
        <time>2013-04-17T12:28:36Z</time>
      </trkpt>
      <trkpt lat="45.04448" lon="5.70875">
        <ele>373.61</ele>
        <time>2013-04-17T12:28:51Z</time>
      </trkpt>
      <trkpt lat="45.04531" lon="5.70931">
        <ele>372.12</ele>
        <time>2013-04-17T12:29:06Z</time>
      </trkpt>
      <trkpt lat="45.04594" lon="5.71029">
        <ele>371.26</ele>
        <time>2013-04-17T12:29:21Z</time>
      </trkpt>
      <trkpt lat="45.04653" lon="5.7113">
        <ele>370.66</ele>
        <time>2013-04-17T12:29:36Z</time>
      </trkpt>
      <trkpt lat="45.04733" lon="5.71128">
        <ele>366.58</ele>
        <time>2013-04-17T12:29:51Z</time>
      </trkpt>
      <trkpt lat="45.04843" lon="5.71082">
        <ele>362.65</ele>
        <time>2013-04-17T12:30:06Z</time>
      </trkpt>
      <trkpt lat="45.04947" lon="5.71178">
        <ele>358.28</ele>
        <time>2013-04-17T12:30:21Z</time>
      </trkpt>
      <trkpt lat="45.05046" lon="5.71264">
        <ele>354.86</ele>
        <time>2013-04-17T12:30:36Z</time>
      </trkpt>
      <trkpt lat="45.05153" lon="5.71351">
        <ele>349.2</ele>
        <time>2013-04-17T12:30:51Z</time>
      </trkpt>
      <trkpt lat="45.05278" lon="5.71416">
        <ele>344.94</ele>
        <time>2013-04-17T12:31:06Z</time>
      </trkpt>
      <trkpt lat="45.05396" lon="5.71507">
        <ele>338.24</ele>
        <time>2013-04-17T12:31:21Z</time>
      </trkpt>
      <trkpt lat="45.05529" lon="5.71574">
        <ele>330.85</ele>
        <time>2013-04-17T12:31:36Z</time>
      </trkpt>
      <trkpt lat="45.05623" lon="5.71702">
        <ele>323.06</ele>
        <time>2013-04-17T12:31:51Z</time>
      </trkpt>
      <trkpt lat="45.05761" lon="5.71762">
        <ele>316.08</ele>
        <time>2013-04-17T12:32:06Z</time>
      </trkpt>
      <trkpt lat="45.05887" lon="5.71845">
        <ele>309.07</ele>
        <time>2013-04-17T12:32:21Z</time>
      </trkpt>
      <trkpt lat="45.06019" lon="5.71931">
        <ele>301.35</ele>
        <time>2013-04-17T12:32:36Z</time>
      </trkpt>
      <trkpt lat="45.0613" lon="5.72062">
        <ele>293.06</ele>
        <time>2013-04-17T12:32:51Z</time>
      </trkpt>
      <trkpt lat="45.06229" lon="5.72215">
        <ele>287.65</ele>
        <time>2013-04-17T12:33:06Z</time>
      </trkpt>
      <trkpt lat="45.06332" lon="5.72301">
        <ele>282.38</ele>
        <time>2013-04-17T12:33:21Z</time>
      </trkpt>
      <trkpt lat="45.06436" lon="5.72434">
        <ele>278.6</ele>
        <time>2013-04-17T12:33:36Z</time>
      </trkpt>
      <trkpt lat="45.06528" lon="5.72551">
        <ele>274.71</ele>
        <time>2013-04-17T12:33:51Z</time>
      </trkpt>
      <trkpt lat="45.06563" lon="5.72617">
        <ele>280.15</ele>
        <time>2013-04-17T12:34:06Z</time>
      </trkpt>
      <trkpt lat="45.06572" lon="5.72626">
        <ele>289.06</ele>
        <time>2013-04-17T12:34:21Z</time>
      </trkpt>
      <trkpt lat="45.06579" lon="5.72649">
        <ele>288.11</ele>
        <time>2013-04-17T12:34:36Z</time>
      </trkpt>
      <trkpt lat="45.06595" lon="5.72675">
        <ele>291.1</ele>
        <time>2013-04-17T12:34:51Z</time>
      </trkpt>
      <trkpt lat="45.0662" lon="5.72704">
        <ele>300.5</ele>
        <time>2013-04-17T12:35:06Z</time>
      </trkpt>
      <trkpt lat="45.06659" lon="5.72743">
        <ele>303.53</ele>
        <time>2013-04-17T12:35:21Z</time>
      </trkpt>
      <trkpt lat="45.06718" lon="5.72796">
        <ele>300.95</ele>
        <time>2013-04-17T12:35:36Z</time>
      </trkpt>
      <trkpt lat="45.06791" lon="5.72863">
        <ele>296</ele>
        <time>2013-04-17T12:35:51Z</time>
      </trkpt>
      <trkpt lat="45.06845" lon="5.72966">
        <ele>298.13</ele>
        <time>2013-04-17T12:36:06Z</time>
      </trkpt>
      <trkpt lat="45.06871" lon="5.73024">
        <ele>302.15</ele>
        <time>2013-04-17T12:36:21Z</time>
      </trkpt>
      <trkpt lat="45.06899" lon="5.73067">
        <ele>305.48</ele>
        <time>2013-04-17T12:36:36Z</time>
      </trkpt>
      <trkpt lat="45.06929" lon="5.73108">
        <ele>308.51</ele>
        <time>2013-04-17T12:36:51Z</time>
      </trkpt>
      <trkpt lat="45.06932" lon="5.73161">
        <ele>314.22</ele>
        <time>2013-04-17T12:37:06Z</time>
      </trkpt>
      <trkpt lat="45.0696" lon="5.73187">
        <ele>316.27</ele>
        <time>2013-04-17T12:37:21Z</time>
      </trkpt>
      <trkpt lat="45.07038" lon="5.73203">
        <ele>311.32</ele>
        <time>2013-04-17T12:37:36Z</time>
      </trkpt>
      <trkpt lat="45.07152" lon="5.73248">
        <ele>301.62</ele>
        <time>2013-04-17T12:37:51Z</time>
      </trkpt>
      <trkpt lat="45.07267" lon="5.73336">
        <ele>298.2</ele>
        <time>2013-04-17T12:38:06Z</time>
      </trkpt>
      <trkpt lat="45.07368" lon="5.73395">
        <ele>299.29</ele>
        <time>2013-04-17T12:38:21Z</time>
      </trkpt>
      <trkpt lat="45.07466" lon="5.73438">
        <ele>297.58</ele>
        <time>2013-04-17T12:38:36Z</time>
      </trkpt>
      <trkpt lat="45.07576" lon="5.73441">
        <ele>294.51</ele>
        <time>2013-04-17T12:38:51Z</time>
      </trkpt>
      <trkpt lat="45.07706" lon="5.73441">
        <ele>286.28</ele>
        <time>2013-04-17T12:39:06Z</time>
      </trkpt>
      <trkpt lat="45.07847" lon="5.73562">
        <ele>274.29</ele>
        <time>2013-04-17T12:39:21Z</time>
      </trkpt>
      <trkpt lat="45.07927" lon="5.73621">
        <ele>268.97</ele>
        <time>2013-04-17T12:39:36Z</time>
      </trkpt>
      <trkpt lat="45.07992" lon="5.7369">
        <ele>268.13</ele>
        <time>2013-04-17T12:39:51Z</time>
      </trkpt>
      <trkpt lat="45.08032" lon="5.73773">
        <ele>268.9</ele>
        <time>2013-04-17T12:40:06Z</time>
      </trkpt>
      <trkpt lat="45.08063" lon="5.73878">
        <ele>269.03</ele>
        <time>2013-04-17T12:40:21Z</time>
      </trkpt>
      <trkpt lat="45.08101" lon="5.73988">
        <ele>269.46</ele>
        <time>2013-04-17T12:40:36Z</time>
      </trkpt>
      <trkpt lat="45.08149" lon="5.74086">
        <ele>269.85</ele>
        <time>2013-04-17T12:40:51Z</time>
      </trkpt>
      <trkpt lat="45.08199" lon="5.74172">
        <ele>268.85</ele>
        <time>2013-04-17T12:41:06Z</time>
      </trkpt>
      <trkpt lat="45.08255" lon="5.74231">
        <ele>269.98</ele>
        <time>2013-04-17T12:41:21Z</time>
      </trkpt>
      <trkpt lat="45.08281" lon="5.74327">
        <ele>269.23</ele>
        <time>2013-04-17T12:41:36Z</time>
      </trkpt>
      <trkpt lat="45.08335" lon="5.74366">
        <ele>269.35</ele>
        <time>2013-04-17T12:41:51Z</time>
      </trkpt>
      <trkpt lat="45.08342" lon="5.74367">
        <ele>275.23</ele>
        <time>2013-04-17T12:42:31Z</time>
      </trkpt>
      <trkpt lat="45.08353" lon="5.74354">
        <ele>275.16</ele>
        <time>2013-04-17T12:42:36Z</time>
      </trkpt>
      <trkpt lat="45.08397" lon="5.74292">
        <ele>274.45</ele>
        <time>2013-04-17T12:42:51Z</time>
      </trkpt>
      <trkpt lat="45.08479" lon="5.74281">
        <ele>274.37</ele>
        <time>2013-04-17T12:43:06Z</time>
      </trkpt>
      <trkpt lat="45.0856" lon="5.74261">
        <ele>273.32</ele>
        <time>2013-04-17T12:43:21Z</time>
      </trkpt>
      <trkpt lat="45.08628" lon="5.742">
        <ele>271.13</ele>
        <time>2013-04-17T12:43:36Z</time>
      </trkpt>
      <trkpt lat="45.08696" lon="5.74115">
        <ele>269.86</ele>
        <time>2013-04-17T12:43:51Z</time>
      </trkpt>
      <trkpt lat="45.08775" lon="5.74059">
        <ele>269.72</ele>
        <time>2013-04-17T12:44:06Z</time>
      </trkpt>
      <trkpt lat="45.08862" lon="5.74029">
        <ele>268.79</ele>
        <time>2013-04-17T12:44:21Z</time>
      </trkpt>
      <trkpt lat="45.08951" lon="5.74042">
        <ele>267.61</ele>
        <time>2013-04-17T12:44:36Z</time>
      </trkpt>
      <trkpt lat="45.09045" lon="5.74049">
        <ele>266.66</ele>
        <time>2013-04-17T12:44:51Z</time>
      </trkpt>
      <trkpt lat="45.09104" lon="5.74138">
        <ele>266.51</ele>
        <time>2013-04-17T12:45:06Z</time>
      </trkpt>
      <trkpt lat="45.09144" lon="5.74246">
        <ele>266.42</ele>
        <time>2013-04-17T12:45:21Z</time>
      </trkpt>
      <trkpt lat="45.09227" lon="5.74275">
        <ele>265.55</ele>
        <time>2013-04-17T12:45:36Z</time>
      </trkpt>
      <trkpt lat="45.09308" lon="5.7429">
        <ele>265.61</ele>
        <time>2013-04-17T12:45:51Z</time>
      </trkpt>
      <trkpt lat="45.09384" lon="5.74283">
        <ele>265.43</ele>
        <time>2013-04-17T12:46:06Z</time>
      </trkpt>
      <trkpt lat="45.09438" lon="5.74357">
        <ele>267.76</ele>
        <time>2013-04-17T12:46:21Z</time>
      </trkpt>
      <trkpt lat="45.09472" lon="5.74433">
        <ele>268.6</ele>
        <time>2013-04-17T12:46:36Z</time>
      </trkpt>
      <trkpt lat="45.09533" lon="5.74495">
        <ele>267.74</ele>
        <time>2013-04-17T12:46:51Z</time>
      </trkpt>
      <trkpt lat="45.09604" lon="5.74543">
        <ele>268.63</ele>
        <time>2013-04-17T12:47:06Z</time>
      </trkpt>
      <trkpt lat="45.09677" lon="5.74579">
        <ele>269.81</ele>
        <time>2013-04-17T12:47:21Z</time>
      </trkpt>
      <trkpt lat="45.09731" lon="5.74654">
        <ele>270.84</ele>
        <time>2013-04-17T12:47:36Z</time>
      </trkpt>
      <trkpt lat="45.09775" lon="5.74739">
        <ele>272.39</ele>
        <time>2013-04-17T12:47:51Z</time>
      </trkpt>
      <trkpt lat="45.09832" lon="5.7479">
        <ele>274.76</ele>
        <time>2013-04-17T12:48:06Z</time>
      </trkpt>
      <trkpt lat="45.09884" lon="5.74833">
        <ele>277.2</ele>
        <time>2013-04-17T12:48:21Z</time>
      </trkpt>
      <trkpt lat="45.09931" lon="5.74877">
        <ele>280.12</ele>
        <time>2013-04-17T12:48:36Z</time>
      </trkpt>
      <trkpt lat="45.09981" lon="5.7492">
        <ele>284.05</ele>
        <time>2013-04-17T12:48:51Z</time>
      </trkpt>
      <trkpt lat="45.10027" lon="5.74959">
        <ele>287.47</ele>
        <time>2013-04-17T12:49:06Z</time>
      </trkpt>
      <trkpt lat="45.10065" lon="5.74998">
        <ele>289.34</ele>
        <time>2013-04-17T12:49:21Z</time>
      </trkpt>
      <trkpt lat="45.10101" lon="5.75037">
        <ele>291.61</ele>
        <time>2013-04-17T12:49:36Z</time>
      </trkpt>
      <trkpt lat="45.10136" lon="5.75074">
        <ele>294.87</ele>
        <time>2013-04-17T12:49:51Z</time>
      </trkpt>
      <trkpt lat="45.10165" lon="5.7512">
        <ele>298.47</ele>
        <time>2013-04-17T12:50:06Z</time>
      </trkpt>
      <trkpt lat="45.10196" lon="5.75157">
        <ele>302.28</ele>
        <time>2013-04-17T12:50:21Z</time>
      </trkpt>
      <trkpt lat="45.10242" lon="5.75095">
        <ele>301.82</ele>
        <time>2013-04-17T12:50:36Z</time>
      </trkpt>
      <trkpt lat="45.10299" lon="5.75033">
        <ele>302.22</ele>
        <time>2013-04-17T12:50:51Z</time>
      </trkpt>
      <trkpt lat="45.10355" lon="5.74982">
        <ele>304.34</ele>
        <time>2013-04-17T12:51:06Z</time>
      </trkpt>
      <trkpt lat="45.10408" lon="5.74972">
        <ele>307.91</ele>
        <time>2013-04-17T12:51:21Z</time>
      </trkpt>
      <trkpt lat="45.1043" lon="5.74883">
        <ele>308.1</ele>
        <time>2013-04-17T12:51:36Z</time>
      </trkpt>
      <trkpt lat="45.10436" lon="5.74795">
        <ele>311.32</ele>
        <time>2013-04-17T12:51:51Z</time>
      </trkpt>
      <trkpt lat="45.1046" lon="5.74745">
        <ele>316</ele>
        <time>2013-04-17T12:52:06Z</time>
      </trkpt>
      <trkpt lat="45.10485" lon="5.7469">
        <ele>320.5</ele>
        <time>2013-04-17T12:52:21Z</time>
      </trkpt>
      <trkpt lat="45.10525" lon="5.74679">
        <ele>323.37</ele>
        <time>2013-04-17T12:52:36Z</time>
      </trkpt>
      <trkpt lat="45.10567" lon="5.74671">
        <ele>328.08</ele>
        <time>2013-04-17T12:52:51Z</time>
      </trkpt>
      <trkpt lat="45.106" lon="5.74729">
        <ele>330.92</ele>
        <time>2013-04-17T12:53:06Z</time>
      </trkpt>
      <trkpt lat="45.10639" lon="5.74795">
        <ele>331.48</ele>
        <time>2013-04-17T12:53:21Z</time>
      </trkpt>
      <trkpt lat="45.10676" lon="5.74883">
        <ele>331.3</ele>
        <time>2013-04-17T12:53:36Z</time>
      </trkpt>
      <trkpt lat="45.10722" lon="5.74934">
        <ele>335.48</ele>
        <time>2013-04-17T12:53:51Z</time>
      </trkpt>
      <trkpt lat="45.10766" lon="5.74957">
        <ele>342.25</ele>
        <time>2013-04-17T12:54:06Z</time>
      </trkpt>
      <trkpt lat="45.10799" lon="5.74999">
        <ele>344.71</ele>
        <time>2013-04-17T12:54:21Z</time>
      </trkpt>
      <trkpt lat="45.10816" lon="5.75065">
        <ele>347.19</ele>
        <time>2013-04-17T12:54:36Z</time>
      </trkpt>
      <trkpt lat="45.10845" lon="5.75118">
        <ele>348.99</ele>
        <time>2013-04-17T12:54:51Z</time>
      </trkpt>
      <trkpt lat="45.10883" lon="5.75158">
        <ele>353.24</ele>
        <time>2013-04-17T12:55:06Z</time>
      </trkpt>
      <trkpt lat="45.1093" lon="5.75177">
        <ele>356.33</ele>
        <time>2013-04-17T12:55:21Z</time>
      </trkpt>
      <trkpt lat="45.10971" lon="5.75218">
        <ele>358.48</ele>
        <time>2013-04-17T12:55:36Z</time>
      </trkpt>
      <trkpt lat="45.11008" lon="5.75276">
        <ele>359.86</ele>
        <time>2013-04-17T12:55:51Z</time>
      </trkpt>
      <trkpt lat="45.11036" lon="5.7534">
        <ele>362.13</ele>
        <time>2013-04-17T12:56:06Z</time>
      </trkpt>
      <trkpt lat="45.11075" lon="5.75368">
        <ele>365.28</ele>
        <time>2013-04-17T12:56:21Z</time>
      </trkpt>
      <trkpt lat="45.11116" lon="5.75393">
        <ele>367.7</ele>
        <time>2013-04-17T12:56:36Z</time>
      </trkpt>
      <trkpt lat="45.1116" lon="5.75419">
        <ele>370.12</ele>
        <time>2013-04-17T12:56:51Z</time>
      </trkpt>
      <trkpt lat="45.11199" lon="5.75443">
        <ele>373.5</ele>
        <time>2013-04-17T12:57:06Z</time>
      </trkpt>
      <trkpt lat="45.1123" lon="5.75463">
        <ele>377.66</ele>
        <time>2013-04-17T12:57:21Z</time>
      </trkpt>
      <trkpt lat="45.11257" lon="5.75483">
        <ele>381.2</ele>
        <time>2013-04-17T12:57:36Z</time>
      </trkpt>
      <trkpt lat="45.11285" lon="5.75501">
        <ele>384.52</ele>
        <time>2013-04-17T12:57:51Z</time>
      </trkpt>
      <trkpt lat="45.11317" lon="5.75519">
        <ele>387.16</ele>
        <time>2013-04-17T12:58:06Z</time>
      </trkpt>
      <trkpt lat="45.11346" lon="5.75547">
        <ele>389.57</ele>
        <time>2013-04-17T12:58:21Z</time>
      </trkpt>
      <trkpt lat="45.11355" lon="5.75589">
        <ele>393.31</ele>
        <time>2013-04-17T12:58:36Z</time>
      </trkpt>
      <trkpt lat="45.11371" lon="5.75629">
        <ele>396.91</ele>
        <time>2013-04-17T12:58:51Z</time>
      </trkpt>
      <trkpt lat="45.11415" lon="5.75682">
        <ele>396.92</ele>
        <time>2013-04-17T12:59:06Z</time>
      </trkpt>
      <trkpt lat="45.11487" lon="5.7573">
        <ele>394.37</ele>
        <time>2013-04-17T12:59:21Z</time>
      </trkpt>
      <trkpt lat="45.11573" lon="5.75784">
        <ele>393.19</ele>
        <time>2013-04-17T12:59:36Z</time>
      </trkpt>
      <trkpt lat="45.116" lon="5.75886">
        <ele>392.61</ele>
        <time>2013-04-17T12:59:51Z</time>
      </trkpt>
      <trkpt lat="45.11585" lon="5.75955">
        <ele>392.52</ele>
        <time>2013-04-17T13:00:06Z</time>
      </trkpt>
      <trkpt lat="45.11614" lon="5.75997">
        <ele>392.49</ele>
        <time>2013-04-17T13:00:21Z</time>
      </trkpt>
      <trkpt lat="45.11636" lon="5.76002">
        <ele>392.83</ele>
        <time>2013-04-17T13:01:38Z</time>
      </trkpt>
      <trkpt lat="45.11618" lon="5.75996">
        <ele>393.9</ele>
        <time>2013-04-17T13:01:51Z</time>
      </trkpt>
      <trkpt lat="45.11693" lon="5.76001">
        <ele>392.57</ele>
        <time>2013-04-17T13:02:06Z</time>
      </trkpt>
      <trkpt lat="45.11789" lon="5.76023">
        <ele>392.09</ele>
        <time>2013-04-17T13:02:21Z</time>
      </trkpt>
      <trkpt lat="45.11869" lon="5.76017">
        <ele>391.48</ele>
        <time>2013-04-17T13:02:36Z</time>
      </trkpt>
      <trkpt lat="45.11955" lon="5.7599">
        <ele>388.95</ele>
        <time>2013-04-17T13:02:51Z</time>
      </trkpt>
      <trkpt lat="45.12054" lon="5.75963">
        <ele>386.87</ele>
        <time>2013-04-17T13:03:06Z</time>
      </trkpt>
      <trkpt lat="45.12174" lon="5.75973">
        <ele>381.04</ele>
        <time>2013-04-17T13:03:21Z</time>
      </trkpt>
      <trkpt lat="45.12296" lon="5.75989">
        <ele>376.93</ele>
        <time>2013-04-17T13:03:36Z</time>
      </trkpt>
      <trkpt lat="45.12403" lon="5.75992">
        <ele>378.28</ele>
        <time>2013-04-17T13:03:51Z</time>
      </trkpt>
      <trkpt lat="45.12507" lon="5.7605">
        <ele>376.63</ele>
        <time>2013-04-17T13:04:06Z</time>
      </trkpt>
      <trkpt lat="45.12621" lon="5.76111">
        <ele>376.87</ele>
        <time>2013-04-17T13:04:21Z</time>
      </trkpt>
      <trkpt lat="45.12746" lon="5.76216">
        <ele>375.41</ele>
        <time>2013-04-17T13:04:36Z</time>
      </trkpt>
      <trkpt lat="45.12836" lon="5.7633">
        <ele>374.06</ele>
        <time>2013-04-17T13:04:51Z</time>
      </trkpt>
      <trkpt lat="45.12918" lon="5.76413">
        <ele>373.39</ele>
        <time>2013-04-17T13:05:06Z</time>
      </trkpt>
      <trkpt lat="45.12996" lon="5.76484">
        <ele>374.27</ele>
        <time>2013-04-17T13:05:21Z</time>
      </trkpt>
      <trkpt lat="45.13077" lon="5.76545">
        <ele>374.8</ele>
        <time>2013-04-17T13:05:36Z</time>
      </trkpt>
      <trkpt lat="45.13154" lon="5.76602">
        <ele>375.48</ele>
        <time>2013-04-17T13:05:51Z</time>
      </trkpt>
      <trkpt lat="45.13229" lon="5.76662">
        <ele>376.02</ele>
        <time>2013-04-17T13:06:06Z</time>
      </trkpt>
      <trkpt lat="45.13307" lon="5.76738">
        <ele>373.67</ele>
        <time>2013-04-17T13:06:21Z</time>
      </trkpt>
      <trkpt lat="45.13366" lon="5.76901">
        <ele>364.33</ele>
        <time>2013-04-17T13:06:36Z</time>
      </trkpt>
      <trkpt lat="45.13442" lon="5.77061">
        <ele>360.91</ele>
        <time>2013-04-17T13:06:51Z</time>
      </trkpt>
      <trkpt lat="45.13522" lon="5.77142">
        <ele>360.99</ele>
        <time>2013-04-17T13:07:06Z</time>
      </trkpt>
      <trkpt lat="45.13531" lon="5.77173">
        <ele>360.16</ele>
        <time>2013-04-17T13:07:21Z</time>
      </trkpt>
      <trkpt lat="45.13566" lon="5.77133">
        <ele>358.08</ele>
        <time>2013-04-17T13:07:36Z</time>
      </trkpt>
      <trkpt lat="45.13642" lon="5.7701">
        <ele>355</ele>
        <time>2013-04-17T13:07:51Z</time>
      </trkpt>
      <trkpt lat="45.1376" lon="5.7697">
        <ele>350.93</ele>
        <time>2013-04-17T13:08:06Z</time>
      </trkpt>
      <trkpt lat="45.13887" lon="5.7696">
        <ele>349.16</ele>
        <time>2013-04-17T13:08:21Z</time>
      </trkpt>
      <trkpt lat="45.14035" lon="5.76978">
        <ele>344.1</ele>
        <time>2013-04-17T13:08:36Z</time>
      </trkpt>
      <trkpt lat="45.14182" lon="5.76977">
        <ele>338.91</ele>
        <time>2013-04-17T13:08:51Z</time>
      </trkpt>
      <trkpt lat="45.14309" lon="5.76978">
        <ele>334.29</ele>
        <time>2013-04-17T13:09:06Z</time>
      </trkpt>
      <trkpt lat="45.14431" lon="5.76946">
        <ele>333.43</ele>
        <time>2013-04-17T13:09:21Z</time>
      </trkpt>
      <trkpt lat="45.14528" lon="5.76792">
        <ele>326.77</ele>
        <time>2013-04-17T13:09:36Z</time>
      </trkpt>
      <trkpt lat="45.14612" lon="5.76595">
        <ele>314.79</ele>
        <time>2013-04-17T13:09:51Z</time>
      </trkpt>
      <trkpt lat="45.14744" lon="5.76435">
        <ele>300.99</ele>
        <time>2013-04-17T13:10:06Z</time>
      </trkpt>
      <trkpt lat="45.1482" lon="5.76211">
        <ele>289.64</ele>
        <time>2013-04-17T13:10:21Z</time>
      </trkpt>
      <trkpt lat="45.14805" lon="5.75929">
        <ele>272.38</ele>
        <time>2013-04-17T13:10:36Z</time>
      </trkpt>
      <trkpt lat="45.14742" lon="5.75695">
        <ele>257.43</ele>
        <time>2013-04-17T13:10:51Z</time>
      </trkpt>
      <trkpt lat="45.14725" lon="5.75504">
        <ele>251.89</ele>
        <time>2013-04-17T13:11:06Z</time>
      </trkpt>
      <trkpt lat="45.14745" lon="5.75353">
        <ele>248.41</ele>
        <time>2013-04-17T13:11:21Z</time>
      </trkpt>
      <trkpt lat="45.14799" lon="5.75208">
        <ele>243.86</ele>
        <time>2013-04-17T13:11:36Z</time>
      </trkpt>
      <trkpt lat="45.14866" lon="5.7508">
        <ele>239.81</ele>
        <time>2013-04-17T13:11:51Z</time>
      </trkpt>
      <trkpt lat="45.14959" lon="5.75029">
        <ele>234.05</ele>
        <time>2013-04-17T13:12:06Z</time>
      </trkpt>
      <trkpt lat="45.15028" lon="5.74998">
        <ele>232.1</ele>
        <time>2013-04-17T13:12:21Z</time>
      </trkpt>
      <trkpt lat="45.15132" lon="5.74946">
        <ele>228.44</ele>
        <time>2013-04-17T13:12:36Z</time>
      </trkpt>
      <trkpt lat="45.15248" lon="5.74891">
        <ele>225.24</ele>
        <time>2013-04-17T13:12:51Z</time>
      </trkpt>
      <trkpt lat="45.15275" lon="5.74882">
        <ele>225.95</ele>
        <time>2013-04-17T13:13:13Z</time>
      </trkpt>
      <trkpt lat="45.15307" lon="5.74865">
        <ele>225.53</ele>
        <time>2013-04-17T13:13:21Z</time>
      </trkpt>
      <trkpt lat="45.15391" lon="5.74822">
        <ele>225.3</ele>
        <time>2013-04-17T13:13:36Z</time>
      </trkpt>
      <trkpt lat="45.15456" lon="5.7479">
        <ele>225.08</ele>
        <time>2013-04-17T13:13:51Z</time>
      </trkpt>
      <trkpt lat="45.15546" lon="5.74746">
        <ele>226.28</ele>
        <time>2013-04-17T13:14:06Z</time>
      </trkpt>
      <trkpt lat="45.15623" lon="5.74709">
        <ele>229.34</ele>
        <time>2013-04-17T13:14:21Z</time>
      </trkpt>
      <trkpt lat="45.15708" lon="5.74669">
        <ele>229.03</ele>
        <time>2013-04-17T13:14:36Z</time>
      </trkpt>
      <trkpt lat="45.15805" lon="5.74619">
        <ele>225.56</ele>
        <time>2013-04-17T13:14:51Z</time>
      </trkpt>
      <trkpt lat="45.15915" lon="5.74564">
        <ele>222.88</ele>
        <time>2013-04-17T13:15:06Z</time>
      </trkpt>
      <trkpt lat="45.16" lon="5.74522">
        <ele>220.97</ele>
        <time>2013-04-17T13:15:21Z</time>
      </trkpt>
      <trkpt lat="45.16091" lon="5.74478">
        <ele>220.27</ele>
        <time>2013-04-17T13:15:36Z</time>
      </trkpt>
      <trkpt lat="45.16176" lon="5.74436">
        <ele>220.19</ele>
        <time>2013-04-17T13:15:51Z</time>
      </trkpt>
      <trkpt lat="45.16257" lon="5.74395">
        <ele>219.85</ele>
        <time>2013-04-17T13:16:06Z</time>
      </trkpt>
      <trkpt lat="45.16335" lon="5.74357">
        <ele>220.2</ele>
        <time>2013-04-17T13:16:21Z</time>
      </trkpt>
      <trkpt lat="45.16415" lon="5.74318">
        <ele>220.05</ele>
        <time>2013-04-17T13:16:36Z</time>
      </trkpt>
      <trkpt lat="45.16498" lon="5.74279">
        <ele>220.47</ele>
        <time>2013-04-17T13:16:51Z</time>
      </trkpt>
      <trkpt lat="45.16569" lon="5.74242">
        <ele>220.14</ele>
        <time>2013-04-17T13:17:06Z</time>
      </trkpt>
      <trkpt lat="45.16651" lon="5.74203">
        <ele>219.39</ele>
        <time>2013-04-17T13:17:21Z</time>
      </trkpt>
      <trkpt lat="45.16733" lon="5.74162">
        <ele>218.92</ele>
        <time>2013-04-17T13:17:36Z</time>
      </trkpt>
      <trkpt lat="45.16816" lon="5.74121">
        <ele>218.64</ele>
        <time>2013-04-17T13:17:51Z</time>
      </trkpt>
      <trkpt lat="45.16897" lon="5.74081">
        <ele>218.68</ele>
        <time>2013-04-17T13:18:06Z</time>
      </trkpt>
      <trkpt lat="45.16977" lon="5.7404">
        <ele>218.74</ele>
        <time>2013-04-17T13:18:21Z</time>
      </trkpt>
      <trkpt lat="45.17043" lon="5.74005">
        <ele>220.36</ele>
        <time>2013-04-17T13:18:36Z</time>
      </trkpt>
      <trkpt lat="45.17064" lon="5.73992">
        <ele>218.06</ele>
        <time>2013-04-17T13:19:06Z</time>
      </trkpt>
      <trkpt lat="45.17052" lon="5.73914">
        <ele>216.41</ele>
        <time>2013-04-17T13:19:21Z</time>
      </trkpt>
      <trkpt lat="45.17022" lon="5.738">
        <ele>214.9</ele>
        <time>2013-04-17T13:19:36Z</time>
      </trkpt>
      <trkpt lat="45.16994" lon="5.73691">
        <ele>214.72</ele>
        <time>2013-04-17T13:19:51Z</time>
      </trkpt>
      <trkpt lat="45.16968" lon="5.73577">
        <ele>215.53</ele>
        <time>2013-04-17T13:20:06Z</time>
      </trkpt>
      <trkpt lat="45.16939" lon="5.73463">
        <ele>219.39</ele>
        <time>2013-04-17T13:20:21Z</time>
      </trkpt>
      <trkpt lat="45.16916" lon="5.73376">
        <ele>217.63</ele>
        <time>2013-04-17T13:20:36Z</time>
      </trkpt>
      <trkpt lat="45.16893" lon="5.73265">
        <ele>217.34</ele>
        <time>2013-04-17T13:20:51Z</time>
      </trkpt>
      <trkpt lat="45.16894" lon="5.73221">
        <ele>216.76</ele>
        <time>2013-04-17T13:21:06Z</time>
      </trkpt>
      <trkpt lat="45.16898" lon="5.73197">
        <ele>218.32</ele>
        <time>2013-04-17T13:21:36Z</time>
      </trkpt>
      <trkpt lat="45.16923" lon="5.73122">
        <ele>217.37</ele>
        <time>2013-04-17T13:21:51Z</time>
      </trkpt>
      <trkpt lat="45.16958" lon="5.73029">
        <ele>217.68</ele>
        <time>2013-04-17T13:22:06Z</time>
      </trkpt>
      <trkpt lat="45.16997" lon="5.72928">
        <ele>217.62</ele>
        <time>2013-04-17T13:22:21Z</time>
      </trkpt>
      <trkpt lat="45.17037" lon="5.72824">
        <ele>216.55</ele>
        <time>2013-04-17T13:22:36Z</time>
      </trkpt>
      <trkpt lat="45.17075" lon="5.72715">
        <ele>214.64</ele>
        <time>2013-04-17T13:22:51Z</time>
      </trkpt>
      <trkpt lat="45.17117" lon="5.72608">
        <ele>215.95</ele>
        <time>2013-04-17T13:23:06Z</time>
      </trkpt>
      <trkpt lat="45.17157" lon="5.72502">
        <ele>221.34</ele>
        <time>2013-04-17T13:23:21Z</time>
      </trkpt>
      <trkpt lat="45.17176" lon="5.72437">
        <ele>231.38</ele>
        <time>2013-04-17T13:23:55Z</time>
      </trkpt>
      <trkpt lat="45.1719" lon="5.72379">
        <ele>230.16</ele>
        <time>2013-04-17T13:24:06Z</time>
      </trkpt>
      <trkpt lat="45.17218" lon="5.72275">
        <ele>226.51</ele>
        <time>2013-04-17T13:24:21Z</time>
      </trkpt>
      <trkpt lat="45.1725" lon="5.72166">
        <ele>223.5</ele>
        <time>2013-04-17T13:24:36Z</time>
      </trkpt>
      <trkpt lat="45.17283" lon="5.72054">
        <ele>221.18</ele>
        <time>2013-04-17T13:24:51Z</time>
      </trkpt>
      <trkpt lat="45.17314" lon="5.71942">
        <ele>219.51</ele>
        <time>2013-04-17T13:25:06Z</time>
      </trkpt>
      <trkpt lat="45.1734" lon="5.71855">
        <ele>219.93</ele>
        <time>2013-04-17T13:25:21Z</time>
      </trkpt>
      <trkpt lat="45.17374" lon="5.71738">
        <ele>219.9</ele>
        <time>2013-04-17T13:25:36Z</time>
      </trkpt>
      <trkpt lat="45.174" lon="5.71648">
        <ele>224</ele>
        <time>2013-04-17T13:25:51Z</time>
      </trkpt>
      <trkpt lat="45.17427" lon="5.71519">
        <ele>219.07</ele>
        <time>2013-04-17T13:26:06Z</time>
      </trkpt>
      <trkpt lat="45.17446" lon="5.7146">
        <ele>219.27</ele>
        <time>2013-04-17T13:26:21Z</time>
      </trkpt>
      <trkpt lat="45.17476" lon="5.71432">
        <ele>218.9</ele>
        <time>2013-04-17T13:26:36Z</time>
      </trkpt>
      <trkpt lat="45.17506" lon="5.71445">
        <ele>221.05</ele>
        <time>2013-04-17T13:27:00Z</time>
      </trkpt>
      <trkpt lat="45.17513" lon="5.71449">
        <ele>221.74</ele>
        <time>2013-04-17T13:27:06Z</time>
      </trkpt>
      <trkpt lat="45.17534" lon="5.71468">
        <ele>225.87</ele>
        <time>2013-04-17T13:27:21Z</time>
      </trkpt>
      <trkpt lat="45.17595" lon="5.71483">
        <ele>234.5</ele>
        <time>2013-04-17T13:27:36Z</time>
      </trkpt>
      <trkpt lat="45.17634" lon="5.71464">
        <ele>242.3</ele>
        <time>2013-04-17T13:27:51Z</time>
      </trkpt>
    </trkseg>
  </trk>
</gpx>